<?xml version="1.0" encoding="UTF-8" standalone="no" ?>
<gpx xmlns="http://www.topografix.com/GPX/1/1" xmlns:xsi="http://www.w3.org/2001/XMLSchema-instance" xsi:schemaLocation="http://www.topografix.com/GPX/1/1 http://www.topografix.com/GPX/1/1/gpx.xsd" version="1.1" creator="VisuGPX - https://www.visugpx.com">
  <metadata>
    <name>Freydières-Lac Crozet</name>
    <desc><![CDATA[Départ des 4 chemins jusqu\'au lac du crozet]]></desc>
  </metadata>
  <trk>
    <name><![CDATA[lac crozet]]></name>
    <trkseg>
      <trkpt lat="45.18729" lon="5.89926">
        <ele>1149</ele>
        <time>2013-09-08T07:40:02.000Z</time>
      </trkpt>
      <trkpt lat="45.18737" lon="5.89942">
        <ele>1148.8000488281</ele>
        <time>2013-09-08T07:40:08.000Z</time>
      </trkpt>
      <trkpt lat="45.18741" lon="5.89954">
        <ele>1148.5999755859</ele>
        <time>2013-09-08T07:40:12.000Z</time>
      </trkpt>
      <trkpt lat="45.18741" lon="5.89973">
        <ele>1148</ele>
        <time>2013-09-08T07:40:17.000Z</time>
      </trkpt>
      <trkpt lat="45.18736" lon="5.89985">
        <ele>1148</ele>
        <time>2013-09-08T07:40:21.000Z</time>
      </trkpt>
      <trkpt lat="45.18734" lon="5.90008">
        <ele>1147.5999755859</ele>
        <time>2013-09-08T07:40:28.000Z</time>
      </trkpt>
      <trkpt lat="45.18725" lon="5.90029">
        <ele>1147.8000488281</ele>
        <time>2013-09-08T07:40:34.000Z</time>
      </trkpt>
      <trkpt lat="45.18724" lon="5.90033">
        <ele>1147.8000488281</ele>
        <time>2013-09-08T07:40:35.000Z</time>
      </trkpt>
      <trkpt lat="45.18715" lon="5.90054">
        <ele>1148.5999755859</ele>
        <time>2013-09-08T07:40:41.000Z</time>
      </trkpt>
      <trkpt lat="45.18707" lon="5.90057">
        <ele>1149.4000244141</ele>
        <time>2013-09-08T07:40:43.000Z</time>
      </trkpt>
      <trkpt lat="45.1869" lon="5.90061">
        <ele>1151.1999511719</ele>
        <time>2013-09-08T07:40:48.000Z</time>
      </trkpt>
      <trkpt lat="45.18676" lon="5.90068">
        <ele>1153.1999511719</ele>
        <time>2013-09-08T07:40:53.000Z</time>
      </trkpt>
      <trkpt lat="45.18664" lon="5.9008">
        <ele>1155.1999511719</ele>
        <time>2013-09-08T07:40:59.000Z</time>
      </trkpt>
      <trkpt lat="45.18658" lon="5.9009">
        <ele>1156.5999755859</ele>
        <time>2013-09-08T07:41:04.000Z</time>
      </trkpt>
      <trkpt lat="45.18659" lon="5.90107">
        <ele>1157.5999755859</ele>
        <time>2013-09-08T07:41:09.000Z</time>
      </trkpt>
      <trkpt lat="45.18667" lon="5.90135">
        <ele>1158.5999755859</ele>
        <time>2013-09-08T07:41:15.000Z</time>
      </trkpt>
      <trkpt lat="45.18671" lon="5.90154">
        <ele>1159.4000244141</ele>
        <time>2013-09-08T07:41:21.000Z</time>
      </trkpt>
      <trkpt lat="45.18674" lon="5.90171">
        <ele>1160.4000244141</ele>
        <time>2013-09-08T07:41:27.000Z</time>
      </trkpt>
      <trkpt lat="45.18681" lon="5.90188">
        <ele>1162</ele>
        <time>2013-09-08T07:41:33.000Z</time>
      </trkpt>
      <trkpt lat="45.1868" lon="5.9019">
        <ele>1162.4000244141</ele>
        <time>2013-09-08T07:41:34.000Z</time>
      </trkpt>
      <trkpt lat="45.18683" lon="5.902">
        <ele>1163.4000244141</ele>
        <time>2013-09-08T07:41:39.000Z</time>
      </trkpt>
      <trkpt lat="45.18685" lon="5.90205">
        <ele>1163.8000488281</ele>
        <time>2013-09-08T07:41:41.000Z</time>
      </trkpt>
      <trkpt lat="45.18686" lon="5.90215">
        <ele>1165.1999511719</ele>
        <time>2013-09-08T07:41:46.000Z</time>
      </trkpt>
      <trkpt lat="45.18692" lon="5.90233">
        <ele>1167</ele>
        <time>2013-09-08T07:41:53.000Z</time>
      </trkpt>
      <trkpt lat="45.18693" lon="5.90244">
        <ele>1168.4000244141</ele>
        <time>2013-09-08T07:41:58.000Z</time>
      </trkpt>
      <trkpt lat="45.18694" lon="5.90246">
        <ele>1168.8000488281</ele>
        <time>2013-09-08T07:41:59.000Z</time>
      </trkpt>
      <trkpt lat="45.18694" lon="5.90257">
        <ele>1170.4000244141</ele>
        <time>2013-09-08T07:42:04.000Z</time>
      </trkpt>
      <trkpt lat="45.18693" lon="5.90261">
        <ele>1171</ele>
        <time>2013-09-08T07:42:05.000Z</time>
      </trkpt>
      <trkpt lat="45.18688" lon="5.90276">
        <ele>1173.5999755859</ele>
        <time>2013-09-08T07:42:11.000Z</time>
      </trkpt>
      <trkpt lat="45.18688" lon="5.90278">
        <ele>1174</ele>
        <time>2013-09-08T07:42:12.000Z</time>
      </trkpt>
      <trkpt lat="45.18684" lon="5.9029">
        <ele>1176</ele>
        <time>2013-09-08T07:42:18.000Z</time>
      </trkpt>
      <trkpt lat="45.18686" lon="5.90302">
        <ele>1177.4000244141</ele>
        <time>2013-09-08T07:42:24.000Z</time>
      </trkpt>
      <trkpt lat="45.18686" lon="5.90307">
        <ele>1178.1999511719</ele>
        <time>2013-09-08T07:42:28.000Z</time>
      </trkpt>
      <trkpt lat="45.18685" lon="5.90315">
        <ele>1179.4000244141</ele>
        <time>2013-09-08T07:42:31.000Z</time>
      </trkpt>
      <trkpt lat="45.18686" lon="5.9032">
        <ele>1180</ele>
        <time>2013-09-08T07:42:34.000Z</time>
      </trkpt>
      <trkpt lat="45.18681" lon="5.90328">
        <ele>1181.8000488281</ele>
        <time>2013-09-08T07:42:39.000Z</time>
      </trkpt>
      <trkpt lat="45.18679" lon="5.9033">
        <ele>1182.1999511719</ele>
        <time>2013-09-08T07:42:40.000Z</time>
      </trkpt>
      <trkpt lat="45.18678" lon="5.90334">
        <ele>1183</ele>
        <time>2013-09-08T07:42:43.000Z</time>
      </trkpt>
      <trkpt lat="45.18676" lon="5.90339">
        <ele>1184</ele>
        <time>2013-09-08T07:42:47.000Z</time>
      </trkpt>
      <trkpt lat="45.1867" lon="5.90351">
        <ele>1187</ele>
        <time>2013-09-08T07:42:54.000Z</time>
      </trkpt>
      <trkpt lat="45.18666" lon="5.90357">
        <ele>1188.4000244141</ele>
        <time>2013-09-08T07:42:59.000Z</time>
      </trkpt>
      <trkpt lat="45.18658" lon="5.90365">
        <ele>1189</ele>
        <time>2013-09-08T07:43:04.000Z</time>
      </trkpt>
      <trkpt lat="45.18659" lon="5.90372">
        <ele>1190.5999755859</ele>
        <time>2013-09-08T07:43:07.000Z</time>
      </trkpt>
      <trkpt lat="45.1866" lon="5.90386">
        <ele>1193.1999511719</ele>
        <time>2013-09-08T07:43:14.000Z</time>
      </trkpt>
      <trkpt lat="45.18661" lon="5.90391">
        <ele>1194.4000244141</ele>
        <time>2013-09-08T07:43:16.000Z</time>
      </trkpt>
      <trkpt lat="45.18663" lon="5.90396">
        <ele>1195.5999755859</ele>
        <time>2013-09-08T07:43:18.000Z</time>
      </trkpt>
      <trkpt lat="45.18663" lon="5.90406">
        <ele>1197.5999755859</ele>
        <time>2013-09-08T07:43:23.000Z</time>
      </trkpt>
      <trkpt lat="45.18661" lon="5.90413">
        <ele>1198.5999755859</ele>
        <time>2013-09-08T07:43:28.000Z</time>
      </trkpt>
      <trkpt lat="45.18659" lon="5.90417">
        <ele>1199</ele>
        <time>2013-09-08T07:43:31.000Z</time>
      </trkpt>
      <trkpt lat="45.18644" lon="5.9042">
        <ele>1198.1999511719</ele>
        <time>2013-09-08T07:43:37.000Z</time>
      </trkpt>
      <trkpt lat="45.18635" lon="5.9043">
        <ele>1199.4000244141</ele>
        <time>2013-09-08T07:43:42.000Z</time>
      </trkpt>
      <trkpt lat="45.18625" lon="5.90439">
        <ele>1200.5999755859</ele>
        <time>2013-09-08T07:43:47.000Z</time>
      </trkpt>
      <trkpt lat="45.1862" lon="5.90447">
        <ele>1202</ele>
        <time>2013-09-08T07:43:51.000Z</time>
      </trkpt>
      <trkpt lat="45.18618" lon="5.90462">
        <ele>1205.1999511719</ele>
        <time>2013-09-08T07:43:57.000Z</time>
      </trkpt>
      <trkpt lat="45.1862" lon="5.90483">
        <ele>1210.5999755859</ele>
        <time>2013-09-08T07:44:04.000Z</time>
      </trkpt>
      <trkpt lat="45.18619" lon="5.90491">
        <ele>1212.4000244141</ele>
        <time>2013-09-08T07:44:07.000Z</time>
      </trkpt>
      <trkpt lat="45.1862" lon="5.90515">
        <ele>1217.5999755859</ele>
        <time>2013-09-08T07:44:14.000Z</time>
      </trkpt>
      <trkpt lat="45.1862" lon="5.90529">
        <ele>1220.4000244141</ele>
        <time>2013-09-08T07:44:18.000Z</time>
      </trkpt>
      <trkpt lat="45.18623" lon="5.90546">
        <ele>1224</ele>
        <time>2013-09-08T07:44:23.000Z</time>
      </trkpt>
      <trkpt lat="45.18621" lon="5.90562">
        <ele>1227</ele>
        <time>2013-09-08T07:44:29.000Z</time>
      </trkpt>
      <trkpt lat="45.18618" lon="5.90572">
        <ele>1229.1999511719</ele>
        <time>2013-09-08T07:44:34.000Z</time>
      </trkpt>
      <trkpt lat="45.18617" lon="5.90577">
        <ele>1230.1999511719</ele>
        <time>2013-09-08T07:44:36.000Z</time>
      </trkpt>
      <trkpt lat="45.18615" lon="5.90583">
        <ele>1231.5999755859</ele>
        <time>2013-09-08T07:44:40.000Z</time>
      </trkpt>
      <trkpt lat="45.18605" lon="5.9059">
        <ele>1233.5999755859</ele>
        <time>2013-09-08T07:44:46.000Z</time>
      </trkpt>
      <trkpt lat="45.186" lon="5.90595">
        <ele>1235.1999511719</ele>
        <time>2013-09-08T07:44:50.000Z</time>
      </trkpt>
      <trkpt lat="45.18593" lon="5.90608">
        <ele>1239.1999511719</ele>
        <time>2013-09-08T07:44:56.000Z</time>
      </trkpt>
      <trkpt lat="45.18589" lon="5.90612">
        <ele>1240.4000244141</ele>
        <time>2013-09-08T07:44:59.000Z</time>
      </trkpt>
      <trkpt lat="45.18575" lon="5.9061">
        <ele>1239.8000488281</ele>
        <time>2013-09-08T07:45:05.000Z</time>
      </trkpt>
      <trkpt lat="45.18572" lon="5.90615">
        <ele>1241.1999511719</ele>
        <time>2013-09-08T07:45:11.000Z</time>
      </trkpt>
      <trkpt lat="45.18567" lon="5.90615">
        <ele>1241</ele>
        <time>2013-09-08T07:45:15.000Z</time>
      </trkpt>
      <trkpt lat="45.18559" lon="5.90613">
        <ele>1240.1999511719</ele>
        <time>2013-09-08T07:45:21.000Z</time>
      </trkpt>
      <trkpt lat="45.18556" lon="5.90613">
        <ele>1240.1999511719</ele>
        <time>2013-09-08T07:45:23.000Z</time>
      </trkpt>
      <trkpt lat="45.18546" lon="5.90616">
        <ele>1240.5999755859</ele>
        <time>2013-09-08T07:45:30.000Z</time>
      </trkpt>
      <trkpt lat="45.18539" lon="5.90621">
        <ele>1241.5999755859</ele>
        <time>2013-09-08T07:45:37.000Z</time>
      </trkpt>
      <trkpt lat="45.18536" lon="5.90622">
        <ele>1241.8000488281</ele>
        <time>2013-09-08T07:45:40.000Z</time>
      </trkpt>
      <trkpt lat="45.18531" lon="5.90625">
        <ele>1242.1999511719</ele>
        <time>2013-09-08T07:45:45.000Z</time>
      </trkpt>
      <trkpt lat="45.18525" lon="5.9063">
        <ele>1243</ele>
        <time>2013-09-08T07:45:52.000Z</time>
      </trkpt>
      <trkpt lat="45.18523" lon="5.90637">
        <ele>1244.5999755859</ele>
        <time>2013-09-08T07:45:57.000Z</time>
      </trkpt>
      <trkpt lat="45.18522" lon="5.90641">
        <ele>1245.1999511719</ele>
        <time>2013-09-08T07:45:59.000Z</time>
      </trkpt>
      <trkpt lat="45.18515" lon="5.90644">
        <ele>1245.4000244141</ele>
        <time>2013-09-08T07:46:03.000Z</time>
      </trkpt>
      <trkpt lat="45.18504" lon="5.90648">
        <ele>1245.5999755859</ele>
        <time>2013-09-08T07:46:09.000Z</time>
      </trkpt>
      <trkpt lat="45.18497" lon="5.90659">
        <ele>1247.4000244141</ele>
        <time>2013-09-08T07:46:15.000Z</time>
      </trkpt>
      <trkpt lat="45.18491" lon="5.90671">
        <ele>1249.5999755859</ele>
        <time>2013-09-08T07:46:21.000Z</time>
      </trkpt>
      <trkpt lat="45.18485" lon="5.90688">
        <ele>1252.4000244141</ele>
        <time>2013-09-08T07:46:27.000Z</time>
      </trkpt>
      <trkpt lat="45.1848" lon="5.90697">
        <ele>1254.1999511719</ele>
        <time>2013-09-08T07:46:31.000Z</time>
      </trkpt>
      <trkpt lat="45.18478" lon="5.90712">
        <ele>1256.5999755859</ele>
        <time>2013-09-08T07:46:36.000Z</time>
      </trkpt>
      <trkpt lat="45.18474" lon="5.90721">
        <ele>1258.1999511719</ele>
        <time>2013-09-08T07:46:41.000Z</time>
      </trkpt>
      <trkpt lat="45.18476" lon="5.90728">
        <ele>1259.4000244141</ele>
        <time>2013-09-08T07:46:44.000Z</time>
      </trkpt>
      <trkpt lat="45.18478" lon="5.90735">
        <ele>1260.5999755859</ele>
        <time>2013-09-08T07:46:47.000Z</time>
      </trkpt>
      <trkpt lat="45.18482" lon="5.90743">
        <ele>1261.8000488281</ele>
        <time>2013-09-08T07:46:52.000Z</time>
      </trkpt>
      <trkpt lat="45.18482" lon="5.90745">
        <ele>1262.1999511719</ele>
        <time>2013-09-08T07:46:53.000Z</time>
      </trkpt>
      <trkpt lat="45.18492" lon="5.90757">
        <ele>1264.8000488281</ele>
        <time>2013-09-08T07:47:00.000Z</time>
      </trkpt>
      <trkpt lat="45.18498" lon="5.90762">
        <ele>1266.4000244141</ele>
        <time>2013-09-08T07:47:04.000Z</time>
      </trkpt>
      <trkpt lat="45.18507" lon="5.90767">
        <ele>1268.1999511719</ele>
        <time>2013-09-08T07:47:09.000Z</time>
      </trkpt>
      <trkpt lat="45.18509" lon="5.90775">
        <ele>1270.5999755859</ele>
        <time>2013-09-08T07:47:14.000Z</time>
      </trkpt>
      <trkpt lat="45.18513" lon="5.9078">
        <ele>1272.1999511719</ele>
        <time>2013-09-08T07:47:18.000Z</time>
      </trkpt>
      <trkpt lat="45.18517" lon="5.90786">
        <ele>1274</ele>
        <time>2013-09-08T07:47:23.000Z</time>
      </trkpt>
      <trkpt lat="45.1852" lon="5.90792">
        <ele>1275.5999755859</ele>
        <time>2013-09-08T07:47:28.000Z</time>
      </trkpt>
      <trkpt lat="45.18527" lon="5.908">
        <ele>1277.8000488281</ele>
        <time>2013-09-08T07:47:37.000Z</time>
      </trkpt>
      <trkpt lat="45.18529" lon="5.90802">
        <ele>1278.4000244141</ele>
        <time>2013-09-08T07:47:40.000Z</time>
      </trkpt>
      <trkpt lat="45.18537" lon="5.90806">
        <ele>1279.5999755859</ele>
        <time>2013-09-08T07:47:46.000Z</time>
      </trkpt>
      <trkpt lat="45.18542" lon="5.90813">
        <ele>1281.1999511719</ele>
        <time>2013-09-08T07:47:51.000Z</time>
      </trkpt>
      <trkpt lat="45.18547" lon="5.90818">
        <ele>1282.4000244141</ele>
        <time>2013-09-08T07:47:55.000Z</time>
      </trkpt>
      <trkpt lat="45.1855" lon="5.90822">
        <ele>1283.1999511719</ele>
        <time>2013-09-08T07:47:58.000Z</time>
      </trkpt>
      <trkpt lat="45.18558" lon="5.90831">
        <ele>1285</ele>
        <time>2013-09-08T07:48:03.000Z</time>
      </trkpt>
      <trkpt lat="45.18563" lon="5.90832">
        <ele>1285</ele>
        <time>2013-09-08T07:48:08.000Z</time>
      </trkpt>
      <trkpt lat="45.18569" lon="5.90841">
        <ele>1287.1999511719</ele>
        <time>2013-09-08T07:48:13.000Z</time>
      </trkpt>
      <trkpt lat="45.18576" lon="5.90847">
        <ele>1288.4000244141</ele>
        <time>2013-09-08T07:48:18.000Z</time>
      </trkpt>
      <trkpt lat="45.18583" lon="5.90853">
        <ele>1289.8000488281</ele>
        <time>2013-09-08T07:48:23.000Z</time>
      </trkpt>
      <trkpt lat="45.18588" lon="5.90863">
        <ele>1292.5999755859</ele>
        <time>2013-09-08T07:48:28.000Z</time>
      </trkpt>
      <trkpt lat="45.18589" lon="5.90869">
        <ele>1294</ele>
        <time>2013-09-08T07:48:33.000Z</time>
      </trkpt>
      <trkpt lat="45.18594" lon="5.90872">
        <ele>1295</ele>
        <time>2013-09-08T07:48:35.000Z</time>
      </trkpt>
      <trkpt lat="45.18599" lon="5.90876">
        <ele>1296</ele>
        <time>2013-09-08T07:48:40.000Z</time>
      </trkpt>
      <trkpt lat="45.18601" lon="5.90881">
        <ele>1297.1999511719</ele>
        <time>2013-09-08T07:48:44.000Z</time>
      </trkpt>
      <trkpt lat="45.18604" lon="5.90884">
        <ele>1298.1999511719</ele>
        <time>2013-09-08T07:48:48.000Z</time>
      </trkpt>
      <trkpt lat="45.18606" lon="5.90889">
        <ele>1299.1999511719</ele>
        <time>2013-09-08T07:48:53.000Z</time>
      </trkpt>
      <trkpt lat="45.18608" lon="5.9089">
        <ele>1299.5999755859</ele>
        <time>2013-09-08T07:48:55.000Z</time>
      </trkpt>
      <trkpt lat="45.18611" lon="5.90896">
        <ele>1301</ele>
        <time>2013-09-08T07:49:01.000Z</time>
      </trkpt>
      <trkpt lat="45.18613" lon="5.90901">
        <ele>1302.1999511719</ele>
        <time>2013-09-08T07:49:05.000Z</time>
      </trkpt>
      <trkpt lat="45.18618" lon="5.90905">
        <ele>1303.4000244141</ele>
        <time>2013-09-08T07:49:11.000Z</time>
      </trkpt>
      <trkpt lat="45.18624" lon="5.90907">
        <ele>1303.5999755859</ele>
        <time>2013-09-08T07:49:15.000Z</time>
      </trkpt>
      <trkpt lat="45.18626" lon="5.90908">
        <ele>1304</ele>
        <time>2013-09-08T07:49:17.000Z</time>
      </trkpt>
      <trkpt lat="45.18627" lon="5.90916">
        <ele>1305.5999755859</ele>
        <time>2013-09-08T07:49:21.000Z</time>
      </trkpt>
      <trkpt lat="45.18632" lon="5.90924">
        <ele>1307.4000244141</ele>
        <time>2013-09-08T07:49:26.000Z</time>
      </trkpt>
      <trkpt lat="45.18638" lon="5.90929">
        <ele>1308.4000244141</ele>
        <time>2013-09-08T07:49:29.000Z</time>
      </trkpt>
      <trkpt lat="45.18643" lon="5.90939">
        <ele>1310.1999511719</ele>
        <time>2013-09-08T07:49:34.000Z</time>
      </trkpt>
      <trkpt lat="45.18653" lon="5.90958">
        <ele>1313.8000488281</ele>
        <time>2013-09-08T07:49:50.000Z</time>
      </trkpt>
      <trkpt lat="45.18656" lon="5.90962">
        <ele>1314.4000244141</ele>
        <time>2013-09-08T07:49:53.000Z</time>
      </trkpt>
      <trkpt lat="45.1866" lon="5.90967">
        <ele>1315.1999511719</ele>
        <time>2013-09-08T07:49:57.000Z</time>
      </trkpt>
      <trkpt lat="45.18667" lon="5.90973">
        <ele>1316.1999511719</ele>
        <time>2013-09-08T07:50:03.000Z</time>
      </trkpt>
      <trkpt lat="45.18676" lon="5.90985">
        <ele>1318</ele>
        <time>2013-09-08T07:50:08.000Z</time>
      </trkpt>
      <trkpt lat="45.18679" lon="5.90991">
        <ele>1319.1999511719</ele>
        <time>2013-09-08T07:50:13.000Z</time>
      </trkpt>
      <trkpt lat="45.18682" lon="5.90993">
        <ele>1319.4000244141</ele>
        <time>2013-09-08T07:50:16.000Z</time>
      </trkpt>
      <trkpt lat="45.18689" lon="5.91004">
        <ele>1321.4000244141</ele>
        <time>2013-09-08T07:50:23.000Z</time>
      </trkpt>
      <trkpt lat="45.18692" lon="5.91007">
        <ele>1322.1999511719</ele>
        <time>2013-09-08T07:50:25.000Z</time>
      </trkpt>
      <trkpt lat="45.18696" lon="5.91008">
        <ele>1322.4000244141</ele>
        <time>2013-09-08T07:50:28.000Z</time>
      </trkpt>
      <trkpt lat="45.18699" lon="5.9101">
        <ele>1322.8000488281</ele>
        <time>2013-09-08T07:50:31.000Z</time>
      </trkpt>
      <trkpt lat="45.18703" lon="5.9102">
        <ele>1325</ele>
        <time>2013-09-08T07:50:37.000Z</time>
      </trkpt>
      <trkpt lat="45.18703" lon="5.91022">
        <ele>1325.5999755859</ele>
        <time>2013-09-08T07:50:38.000Z</time>
      </trkpt>
      <trkpt lat="45.18705" lon="5.91031">
        <ele>1327.4000244141</ele>
        <time>2013-09-08T07:50:43.000Z</time>
      </trkpt>
      <trkpt lat="45.18707" lon="5.91034">
        <ele>1328.1999511719</ele>
        <time>2013-09-08T07:50:46.000Z</time>
      </trkpt>
      <trkpt lat="45.18713" lon="5.91036">
        <ele>1328.8000488281</ele>
        <time>2013-09-08T07:50:52.000Z</time>
      </trkpt>
      <trkpt lat="45.18715" lon="5.91041">
        <ele>1329.8000488281</ele>
        <time>2013-09-08T07:51:00.000Z</time>
      </trkpt>
      <trkpt lat="45.1872" lon="5.91051">
        <ele>1332.1999511719</ele>
        <time>2013-09-08T07:51:07.000Z</time>
      </trkpt>
      <trkpt lat="45.18724" lon="5.9106">
        <ele>1334.4000244141</ele>
        <time>2013-09-08T07:51:14.000Z</time>
      </trkpt>
      <trkpt lat="45.18727" lon="5.91071">
        <ele>1337.1999511719</ele>
        <time>2013-09-08T07:51:20.000Z</time>
      </trkpt>
      <trkpt lat="45.1873" lon="5.91078">
        <ele>1338.8000488281</ele>
        <time>2013-09-08T07:51:25.000Z</time>
      </trkpt>
      <trkpt lat="45.18736" lon="5.91085">
        <ele>1341</ele>
        <time>2013-09-08T07:51:30.000Z</time>
      </trkpt>
      <trkpt lat="45.18741" lon="5.91096">
        <ele>1344.4000244141</ele>
        <time>2013-09-08T07:51:36.000Z</time>
      </trkpt>
      <trkpt lat="45.18741" lon="5.91098">
        <ele>1345</ele>
        <time>2013-09-08T07:51:37.000Z</time>
      </trkpt>
      <trkpt lat="45.18742" lon="5.91103">
        <ele>1346.5999755859</ele>
        <time>2013-09-08T07:51:41.000Z</time>
      </trkpt>
      <trkpt lat="45.1875" lon="5.91109">
        <ele>1348.5999755859</ele>
        <time>2013-09-08T07:51:48.000Z</time>
      </trkpt>
      <trkpt lat="45.18753" lon="5.91109">
        <ele>1348.4000244141</ele>
        <time>2013-09-08T07:51:51.000Z</time>
      </trkpt>
      <trkpt lat="45.18757" lon="5.91112">
        <ele>1349.4000244141</ele>
        <time>2013-09-08T07:51:54.000Z</time>
      </trkpt>
      <trkpt lat="45.18759" lon="5.91118">
        <ele>1351</ele>
        <time>2013-09-08T07:51:58.000Z</time>
      </trkpt>
      <trkpt lat="45.18769" lon="5.91124">
        <ele>1352.1999511719</ele>
        <time>2013-09-08T07:52:06.000Z</time>
      </trkpt>
      <trkpt lat="45.18775" lon="5.91129">
        <ele>1353.4000244141</ele>
        <time>2013-09-08T07:52:12.000Z</time>
      </trkpt>
      <trkpt lat="45.18783" lon="5.91131">
        <ele>1353.4000244141</ele>
        <time>2013-09-08T07:52:18.000Z</time>
      </trkpt>
      <trkpt lat="45.18785" lon="5.91131">
        <ele>1353.4000244141</ele>
        <time>2013-09-08T07:52:20.000Z</time>
      </trkpt>
      <trkpt lat="45.18795" lon="5.91133">
        <ele>1353.1999511719</ele>
        <time>2013-09-08T07:52:26.000Z</time>
      </trkpt>
      <trkpt lat="45.188" lon="5.91131">
        <ele>1352.4000244141</ele>
        <time>2013-09-08T07:52:29.000Z</time>
      </trkpt>
      <trkpt lat="45.18805" lon="5.91132">
        <ele>1352.4000244141</ele>
        <time>2013-09-08T07:52:33.000Z</time>
      </trkpt>
      <trkpt lat="45.18808" lon="5.91132">
        <ele>1352.1999511719</ele>
        <time>2013-09-08T07:52:37.000Z</time>
      </trkpt>
      <trkpt lat="45.18814" lon="5.91129">
        <ele>1351.1999511719</ele>
        <time>2013-09-08T07:52:43.000Z</time>
      </trkpt>
      <trkpt lat="45.18819" lon="5.91131">
        <ele>1351.4000244141</ele>
        <time>2013-09-08T07:52:47.000Z</time>
      </trkpt>
      <trkpt lat="45.18827" lon="5.91134">
        <ele>1351.5999755859</ele>
        <time>2013-09-08T07:52:52.000Z</time>
      </trkpt>
      <trkpt lat="45.18836" lon="5.91138">
        <ele>1351.4000244141</ele>
        <time>2013-09-08T07:52:57.000Z</time>
      </trkpt>
      <trkpt lat="45.18841" lon="5.91146">
        <ele>1351.4000244141</ele>
        <time>2013-09-08T07:53:01.000Z</time>
      </trkpt>
      <trkpt lat="45.18846" lon="5.91155">
        <ele>1351.5999755859</ele>
        <time>2013-09-08T07:53:06.000Z</time>
      </trkpt>
      <trkpt lat="45.18849" lon="5.9116">
        <ele>1351.4000244141</ele>
        <time>2013-09-08T07:53:10.000Z</time>
      </trkpt>
      <trkpt lat="45.18851" lon="5.91168">
        <ele>1352</ele>
        <time>2013-09-08T07:53:14.000Z</time>
      </trkpt>
      <trkpt lat="45.18852" lon="5.91169">
        <ele>1351.8000488281</ele>
        <time>2013-09-08T07:53:15.000Z</time>
      </trkpt>
      <trkpt lat="45.18847" lon="5.91178">
        <ele>1352.5999755859</ele>
        <time>2013-09-08T07:53:21.000Z</time>
      </trkpt>
      <trkpt lat="45.18846" lon="5.9118">
        <ele>1352.8000488281</ele>
        <time>2013-09-08T07:53:22.000Z</time>
      </trkpt>
      <trkpt lat="45.18843" lon="5.91181">
        <ele>1353.8000488281</ele>
        <time>2013-09-08T07:53:24.000Z</time>
      </trkpt>
      <trkpt lat="45.18837" lon="5.91185">
        <ele>1355.8000488281</ele>
        <time>2013-09-08T07:53:28.000Z</time>
      </trkpt>
      <trkpt lat="45.18824" lon="5.9119">
        <ele>1357.8000488281</ele>
        <time>2013-09-08T07:53:34.000Z</time>
      </trkpt>
      <trkpt lat="45.18829" lon="5.91196">
        <ele>1356.5999755859</ele>
        <time>2013-09-08T07:54:14.000Z</time>
      </trkpt>
      <trkpt lat="45.18823" lon="5.91202">
        <ele>1357.4000244141</ele>
        <time>2013-09-08T07:54:19.000Z</time>
      </trkpt>
      <trkpt lat="45.1882" lon="5.91209">
        <ele>1357.5999755859</ele>
        <time>2013-09-08T07:54:24.000Z</time>
      </trkpt>
      <trkpt lat="45.18809" lon="5.91217">
        <ele>1359.4000244141</ele>
        <time>2013-09-08T07:54:31.000Z</time>
      </trkpt>
      <trkpt lat="45.18803" lon="5.91223">
        <ele>1360.4000244141</ele>
        <time>2013-09-08T07:54:35.000Z</time>
      </trkpt>
      <trkpt lat="45.18795" lon="5.91235">
        <ele>1362</ele>
        <time>2013-09-08T07:54:42.000Z</time>
      </trkpt>
      <trkpt lat="45.18787" lon="5.91245">
        <ele>1363.8000488281</ele>
        <time>2013-09-08T07:54:48.000Z</time>
      </trkpt>
      <trkpt lat="45.18784" lon="5.91257">
        <ele>1363.1999511719</ele>
        <time>2013-09-08T07:54:52.000Z</time>
      </trkpt>
      <trkpt lat="45.18774" lon="5.91265">
        <ele>1363.5999755859</ele>
        <time>2013-09-08T07:54:56.000Z</time>
      </trkpt>
      <trkpt lat="45.18773" lon="5.91269">
        <ele>1363.4000244141</ele>
        <time>2013-09-08T07:54:57.000Z</time>
      </trkpt>
      <trkpt lat="45.18763" lon="5.91281">
        <ele>1363</ele>
        <time>2013-09-08T07:55:03.000Z</time>
      </trkpt>
      <trkpt lat="45.18756" lon="5.91294">
        <ele>1361.8000488281</ele>
        <time>2013-09-08T07:55:08.000Z</time>
      </trkpt>
      <trkpt lat="45.18748" lon="5.91304">
        <ele>1361.5999755859</ele>
        <time>2013-09-08T07:55:12.000Z</time>
      </trkpt>
      <trkpt lat="45.18739" lon="5.91315">
        <ele>1361.4000244141</ele>
        <time>2013-09-08T07:55:17.000Z</time>
      </trkpt>
      <trkpt lat="45.18738" lon="5.91317">
        <ele>1361.4000244141</ele>
        <time>2013-09-08T07:55:18.000Z</time>
      </trkpt>
      <trkpt lat="45.18726" lon="5.91322">
        <ele>1363.1999511719</ele>
        <time>2013-09-08T07:55:24.000Z</time>
      </trkpt>
      <trkpt lat="45.18718" lon="5.91322">
        <ele>1365.1999511719</ele>
        <time>2013-09-08T07:55:29.000Z</time>
      </trkpt>
      <trkpt lat="45.18709" lon="5.91322">
        <ele>1367.5999755859</ele>
        <time>2013-09-08T07:55:36.000Z</time>
      </trkpt>
      <trkpt lat="45.18703" lon="5.91323">
        <ele>1368.8000488281</ele>
        <time>2013-09-08T07:55:42.000Z</time>
      </trkpt>
      <trkpt lat="45.18693" lon="5.91322">
        <ele>1371.4000244141</ele>
        <time>2013-09-08T07:55:47.000Z</time>
      </trkpt>
      <trkpt lat="45.18683" lon="5.91324">
        <ele>1374</ele>
        <time>2013-09-08T07:55:54.000Z</time>
      </trkpt>
      <trkpt lat="45.18669" lon="5.91325">
        <ele>1377.1999511719</ele>
        <time>2013-09-08T07:56:00.000Z</time>
      </trkpt>
      <trkpt lat="45.18659" lon="5.9132">
        <ele>1379.4000244141</ele>
        <time>2013-09-08T07:56:06.000Z</time>
      </trkpt>
      <trkpt lat="45.18658" lon="5.91319">
        <ele>1379.5999755859</ele>
        <time>2013-09-08T07:56:07.000Z</time>
      </trkpt>
      <trkpt lat="45.18648" lon="5.91323">
        <ele>1381.8000488281</ele>
        <time>2013-09-08T07:56:12.000Z</time>
      </trkpt>
      <trkpt lat="45.18644" lon="5.91324">
        <ele>1382.5999755859</ele>
        <time>2013-09-08T07:56:14.000Z</time>
      </trkpt>
      <trkpt lat="45.18632" lon="5.91332">
        <ele>1385.4000244141</ele>
        <time>2013-09-08T07:56:21.000Z</time>
      </trkpt>
      <trkpt lat="45.18626" lon="5.9134">
        <ele>1384.8000488281</ele>
        <time>2013-09-08T07:56:26.000Z</time>
      </trkpt>
      <trkpt lat="45.18623" lon="5.91346">
        <ele>1384</ele>
        <time>2013-09-08T07:56:29.000Z</time>
      </trkpt>
      <trkpt lat="45.18622" lon="5.91352">
        <ele>1382.5999755859</ele>
        <time>2013-09-08T07:56:32.000Z</time>
      </trkpt>
      <trkpt lat="45.18617" lon="5.91361">
        <ele>1381.4000244141</ele>
        <time>2013-09-08T07:56:37.000Z</time>
      </trkpt>
      <trkpt lat="45.18616" lon="5.91365">
        <ele>1380.5999755859</ele>
        <time>2013-09-08T07:56:39.000Z</time>
      </trkpt>
      <trkpt lat="45.18611" lon="5.91369">
        <ele>1381.1999511719</ele>
        <time>2013-09-08T07:56:43.000Z</time>
      </trkpt>
      <trkpt lat="45.18603" lon="5.91378">
        <ele>1381</ele>
        <time>2013-09-08T07:56:51.000Z</time>
      </trkpt>
      <trkpt lat="45.18596" lon="5.91379">
        <ele>1382.4000244141</ele>
        <time>2013-09-08T07:56:56.000Z</time>
      </trkpt>
      <trkpt lat="45.1859" lon="5.91382">
        <ele>1383.5999755859</ele>
        <time>2013-09-08T07:57:02.000Z</time>
      </trkpt>
      <trkpt lat="45.18587" lon="5.91383">
        <ele>1384</ele>
        <time>2013-09-08T07:57:04.000Z</time>
      </trkpt>
      <trkpt lat="45.18583" lon="5.91386">
        <ele>1384.8000488281</ele>
        <time>2013-09-08T07:57:08.000Z</time>
      </trkpt>
      <trkpt lat="45.1858" lon="5.91393">
        <ele>1384.4000244141</ele>
        <time>2013-09-08T07:57:15.000Z</time>
      </trkpt>
      <trkpt lat="45.18576" lon="5.91394">
        <ele>1385.4000244141</ele>
        <time>2013-09-08T07:57:19.000Z</time>
      </trkpt>
      <trkpt lat="45.18573" lon="5.91396">
        <ele>1386.1999511719</ele>
        <time>2013-09-08T07:57:22.000Z</time>
      </trkpt>
      <trkpt lat="45.18568" lon="5.91399">
        <ele>1387.5999755859</ele>
        <time>2013-09-08T07:57:28.000Z</time>
      </trkpt>
      <trkpt lat="45.18565" lon="5.91402">
        <ele>1388.4000244141</ele>
        <time>2013-09-08T07:57:31.000Z</time>
      </trkpt>
      <trkpt lat="45.18554" lon="5.91404">
        <ele>1392</ele>
        <time>2013-09-08T07:57:37.000Z</time>
      </trkpt>
      <trkpt lat="45.18545" lon="5.91401">
        <ele>1396</ele>
        <time>2013-09-08T07:57:44.000Z</time>
      </trkpt>
      <trkpt lat="45.1854" lon="5.91401">
        <ele>1397.8000488281</ele>
        <time>2013-09-08T07:57:49.000Z</time>
      </trkpt>
      <trkpt lat="45.18532" lon="5.91398">
        <ele>1401</ele>
        <time>2013-09-08T07:57:56.000Z</time>
      </trkpt>
      <trkpt lat="45.18526" lon="5.91391">
        <ele>1403.4000244141</ele>
        <time>2013-09-08T07:58:02.000Z</time>
      </trkpt>
      <trkpt lat="45.1852" lon="5.91385">
        <ele>1405.5999755859</ele>
        <time>2013-09-08T07:58:07.000Z</time>
      </trkpt>
      <trkpt lat="45.18514" lon="5.91386">
        <ele>1407.8000488281</ele>
        <time>2013-09-08T07:58:11.000Z</time>
      </trkpt>
      <trkpt lat="45.18505" lon="5.91385">
        <ele>1410.8000488281</ele>
        <time>2013-09-08T07:58:17.000Z</time>
      </trkpt>
      <trkpt lat="45.18498" lon="5.91386">
        <ele>1413</ele>
        <time>2013-09-08T07:58:22.000Z</time>
      </trkpt>
      <trkpt lat="45.18491" lon="5.91386">
        <ele>1415.4000244141</ele>
        <time>2013-09-08T07:58:29.000Z</time>
      </trkpt>
      <trkpt lat="45.18482" lon="5.91389">
        <ele>1418.1999511719</ele>
        <time>2013-09-08T07:58:35.000Z</time>
      </trkpt>
      <trkpt lat="45.18481" lon="5.91389">
        <ele>1418.5999755859</ele>
        <time>2013-09-08T07:58:36.000Z</time>
      </trkpt>
      <trkpt lat="45.18478" lon="5.91392">
        <ele>1420</ele>
        <time>2013-09-08T07:58:40.000Z</time>
      </trkpt>
      <trkpt lat="45.18474" lon="5.91394">
        <ele>1421.5999755859</ele>
        <time>2013-09-08T07:58:44.000Z</time>
      </trkpt>
      <trkpt lat="45.18468" lon="5.91391">
        <ele>1423.1999511719</ele>
        <time>2013-09-08T07:58:50.000Z</time>
      </trkpt>
      <trkpt lat="45.18466" lon="5.91392">
        <ele>1424</ele>
        <time>2013-09-08T07:58:52.000Z</time>
      </trkpt>
      <trkpt lat="45.18457" lon="5.91397">
        <ele>1428</ele>
        <time>2013-09-08T07:58:59.000Z</time>
      </trkpt>
      <trkpt lat="45.18454" lon="5.91399">
        <ele>1429.1999511719</ele>
        <time>2013-09-08T07:59:02.000Z</time>
      </trkpt>
      <trkpt lat="45.18452" lon="5.91399">
        <ele>1429.8000488281</ele>
        <time>2013-09-08T07:59:06.000Z</time>
      </trkpt>
      <trkpt lat="45.18447" lon="5.91396">
        <ele>1431</ele>
        <time>2013-09-08T07:59:10.000Z</time>
      </trkpt>
      <trkpt lat="45.18437" lon="5.91402">
        <ele>1436</ele>
        <time>2013-09-08T07:59:17.000Z</time>
      </trkpt>
      <trkpt lat="45.18425" lon="5.91406">
        <ele>1441.5999755859</ele>
        <time>2013-09-08T07:59:24.000Z</time>
      </trkpt>
      <trkpt lat="45.18417" lon="5.91407">
        <ele>1444.5999755859</ele>
        <time>2013-09-08T07:59:29.000Z</time>
      </trkpt>
      <trkpt lat="45.18414" lon="5.91407">
        <ele>1445.5999755859</ele>
        <time>2013-09-08T07:59:33.000Z</time>
      </trkpt>
      <trkpt lat="45.184" lon="5.91411">
        <ele>1449.5999755859</ele>
        <time>2013-09-08T07:59:43.000Z</time>
      </trkpt>
      <trkpt lat="45.18395" lon="5.91415">
        <ele>1451.5999755859</ele>
        <time>2013-09-08T07:59:47.000Z</time>
      </trkpt>
      <trkpt lat="45.18388" lon="5.91417">
        <ele>1453.8000488281</ele>
        <time>2013-09-08T07:59:52.000Z</time>
      </trkpt>
      <trkpt lat="45.18382" lon="5.91419">
        <ele>1455</ele>
        <time>2013-09-08T07:59:56.000Z</time>
      </trkpt>
      <trkpt lat="45.18378" lon="5.91421">
        <ele>1456.1999511719</ele>
        <time>2013-09-08T08:00:01.000Z</time>
      </trkpt>
      <trkpt lat="45.18367" lon="5.91423">
        <ele>1458.8000488281</ele>
        <time>2013-09-08T08:00:09.000Z</time>
      </trkpt>
      <trkpt lat="45.18364" lon="5.91425">
        <ele>1459.5999755859</ele>
        <time>2013-09-08T08:00:12.000Z</time>
      </trkpt>
      <trkpt lat="45.18357" lon="5.91427">
        <ele>1461.5999755859</ele>
        <time>2013-09-08T08:00:19.000Z</time>
      </trkpt>
      <trkpt lat="45.18352" lon="5.91426">
        <ele>1462.5999755859</ele>
        <time>2013-09-08T08:00:24.000Z</time>
      </trkpt>
      <trkpt lat="45.18345" lon="5.9143">
        <ele>1464.8000488281</ele>
        <time>2013-09-08T08:00:30.000Z</time>
      </trkpt>
      <trkpt lat="45.18342" lon="5.91433">
        <ele>1465.8000488281</ele>
        <time>2013-09-08T08:00:32.000Z</time>
      </trkpt>
      <trkpt lat="45.18333" lon="5.91435">
        <ele>1468.4000244141</ele>
        <time>2013-09-08T08:00:39.000Z</time>
      </trkpt>
      <trkpt lat="45.18328" lon="5.91436">
        <ele>1469.5999755859</ele>
        <time>2013-09-08T08:00:44.000Z</time>
      </trkpt>
      <trkpt lat="45.18326" lon="5.91438">
        <ele>1470.1999511719</ele>
        <time>2013-09-08T08:00:47.000Z</time>
      </trkpt>
      <trkpt lat="45.1832" lon="5.91435">
        <ele>1470.8000488281</ele>
        <time>2013-09-08T08:00:51.000Z</time>
      </trkpt>
      <trkpt lat="45.18314" lon="5.91435">
        <ele>1471.8000488281</ele>
        <time>2013-09-08T08:00:55.000Z</time>
      </trkpt>
      <trkpt lat="45.18314" lon="5.91437">
        <ele>1472.1999511719</ele>
        <time>2013-09-08T08:01:01.000Z</time>
      </trkpt>
      <trkpt lat="45.1831" lon="5.91436">
        <ele>1472.5999755859</ele>
        <time>2013-09-08T08:01:09.000Z</time>
      </trkpt>
      <trkpt lat="45.18307" lon="5.91436">
        <ele>1473.1999511719</ele>
        <time>2013-09-08T08:01:45.000Z</time>
      </trkpt>
      <trkpt lat="45.183" lon="5.9144">
        <ele>1475.1999511719</ele>
        <time>2013-09-08T08:01:51.000Z</time>
      </trkpt>
      <trkpt lat="45.18296" lon="5.91439">
        <ele>1475.5999755859</ele>
        <time>2013-09-08T08:01:54.000Z</time>
      </trkpt>
      <trkpt lat="45.18293" lon="5.91438">
        <ele>1476</ele>
        <time>2013-09-08T08:01:56.000Z</time>
      </trkpt>
      <trkpt lat="45.18284" lon="5.91443">
        <ele>1478.5999755859</ele>
        <time>2013-09-08T08:02:03.000Z</time>
      </trkpt>
      <trkpt lat="45.18276" lon="5.91448">
        <ele>1481</ele>
        <time>2013-09-08T08:02:08.000Z</time>
      </trkpt>
      <trkpt lat="45.1827" lon="5.91447">
        <ele>1482</ele>
        <time>2013-09-08T08:02:12.000Z</time>
      </trkpt>
      <trkpt lat="45.18263" lon="5.91452">
        <ele>1484</ele>
        <time>2013-09-08T08:02:16.000Z</time>
      </trkpt>
      <trkpt lat="45.18253" lon="5.91457">
        <ele>1486.8000488281</ele>
        <time>2013-09-08T08:02:23.000Z</time>
      </trkpt>
      <trkpt lat="45.18246" lon="5.91461">
        <ele>1488.4000244141</ele>
        <time>2013-09-08T08:02:28.000Z</time>
      </trkpt>
      <trkpt lat="45.1824" lon="5.91468">
        <ele>1490.4000244141</ele>
        <time>2013-09-08T08:02:34.000Z</time>
      </trkpt>
      <trkpt lat="45.18233" lon="5.91473">
        <ele>1492.1999511719</ele>
        <time>2013-09-08T08:02:39.000Z</time>
      </trkpt>
      <trkpt lat="45.18224" lon="5.91478">
        <ele>1494</ele>
        <time>2013-09-08T08:02:43.000Z</time>
      </trkpt>
      <trkpt lat="45.1822" lon="5.91475">
        <ele>1494</ele>
        <time>2013-09-08T08:02:46.000Z</time>
      </trkpt>
      <trkpt lat="45.18215" lon="5.91475">
        <ele>1494.8000488281</ele>
        <time>2013-09-08T08:02:49.000Z</time>
      </trkpt>
      <trkpt lat="45.18206" lon="5.91477">
        <ele>1496.1999511719</ele>
        <time>2013-09-08T08:02:56.000Z</time>
      </trkpt>
      <trkpt lat="45.18197" lon="5.9148">
        <ele>1497.8000488281</ele>
        <time>2013-09-08T08:03:04.000Z</time>
      </trkpt>
      <trkpt lat="45.18191" lon="5.91483">
        <ele>1499</ele>
        <time>2013-09-08T08:03:09.000Z</time>
      </trkpt>
      <trkpt lat="45.18185" lon="5.9149">
        <ele>1500.8000488281</ele>
        <time>2013-09-08T08:03:14.000Z</time>
      </trkpt>
      <trkpt lat="45.18174" lon="5.91498">
        <ele>1503.5999755859</ele>
        <time>2013-09-08T08:03:23.000Z</time>
      </trkpt>
      <trkpt lat="45.18172" lon="5.91501">
        <ele>1504.1999511719</ele>
        <time>2013-09-08T08:03:25.000Z</time>
      </trkpt>
      <trkpt lat="45.18171" lon="5.91508">
        <ele>1504.1999511719</ele>
        <time>2013-09-08T08:03:28.000Z</time>
      </trkpt>
      <trkpt lat="45.18176" lon="5.91525">
        <ele>1503.4000244141</ele>
        <time>2013-09-08T08:03:34.000Z</time>
      </trkpt>
      <trkpt lat="45.18177" lon="5.9153">
        <ele>1503.1999511719</ele>
        <time>2013-09-08T08:03:36.000Z</time>
      </trkpt>
      <trkpt lat="45.18181" lon="5.91545">
        <ele>1502.5999755859</ele>
        <time>2013-09-08T08:03:42.000Z</time>
      </trkpt>
      <trkpt lat="45.18179" lon="5.91558">
        <ele>1502.5999755859</ele>
        <time>2013-09-08T08:03:47.000Z</time>
      </trkpt>
      <trkpt lat="45.1817" lon="5.91573">
        <ele>1503</ele>
        <time>2013-09-08T08:03:53.000Z</time>
      </trkpt>
      <trkpt lat="45.18158" lon="5.91581">
        <ele>1503.8000488281</ele>
        <time>2013-09-08T08:03:58.000Z</time>
      </trkpt>
      <trkpt lat="45.18145" lon="5.91585">
        <ele>1504.1999511719</ele>
        <time>2013-09-08T08:04:03.000Z</time>
      </trkpt>
      <trkpt lat="45.18126" lon="5.91591">
        <ele>1504.5999755859</ele>
        <time>2013-09-08T08:04:11.000Z</time>
      </trkpt>
      <trkpt lat="45.18119" lon="5.91593">
        <ele>1504.8000488281</ele>
        <time>2013-09-08T08:04:14.000Z</time>
      </trkpt>
      <trkpt lat="45.18104" lon="5.91596">
        <ele>1505.4000244141</ele>
        <time>2013-09-08T08:04:21.000Z</time>
      </trkpt>
      <trkpt lat="45.18093" lon="5.91596">
        <ele>1506.5999755859</ele>
        <time>2013-09-08T08:04:26.000Z</time>
      </trkpt>
      <trkpt lat="45.1808" lon="5.91599">
        <ele>1507.4000244141</ele>
        <time>2013-09-08T08:04:31.000Z</time>
      </trkpt>
      <trkpt lat="45.18064" lon="5.91595">
        <ele>1511</ele>
        <time>2013-09-08T08:04:37.000Z</time>
      </trkpt>
      <trkpt lat="45.18051" lon="5.91594">
        <ele>1513.1999511719</ele>
        <time>2013-09-08T08:04:43.000Z</time>
      </trkpt>
      <trkpt lat="45.18038" lon="5.91596">
        <ele>1514.8000488281</ele>
        <time>2013-09-08T08:04:50.000Z</time>
      </trkpt>
      <trkpt lat="45.18033" lon="5.91598">
        <ele>1515.4000244141</ele>
        <time>2013-09-08T08:04:53.000Z</time>
      </trkpt>
      <trkpt lat="45.18024" lon="5.91602">
        <ele>1516.4000244141</ele>
        <time>2013-09-08T08:05:01.000Z</time>
      </trkpt>
      <trkpt lat="45.18016" lon="5.91603">
        <ele>1517.8000488281</ele>
        <time>2013-09-08T08:05:08.000Z</time>
      </trkpt>
      <trkpt lat="45.18012" lon="5.91604">
        <ele>1518.4000244141</ele>
        <time>2013-09-08T08:05:12.000Z</time>
      </trkpt>
      <trkpt lat="45.18008" lon="5.91605">
        <ele>1519.1999511719</ele>
        <time>2013-09-08T08:05:16.000Z</time>
      </trkpt>
      <trkpt lat="45.18005" lon="5.91605">
        <ele>1519.8000488281</ele>
        <time>2013-09-08T08:05:20.000Z</time>
      </trkpt>
      <trkpt lat="45.17998" lon="5.91607">
        <ele>1521.1999511719</ele>
        <time>2013-09-08T08:05:26.000Z</time>
      </trkpt>
      <trkpt lat="45.17989" lon="5.91608">
        <ele>1523.4000244141</ele>
        <time>2013-09-08T08:05:33.000Z</time>
      </trkpt>
      <trkpt lat="45.17985" lon="5.91608">
        <ele>1524.4000244141</ele>
        <time>2013-09-08T08:05:36.000Z</time>
      </trkpt>
      <trkpt lat="45.17974" lon="5.9161">
        <ele>1527.1999511719</ele>
        <time>2013-09-08T08:05:43.000Z</time>
      </trkpt>
      <trkpt lat="45.17973" lon="5.91609">
        <ele>1527.1999511719</ele>
        <time>2013-09-08T08:05:44.000Z</time>
      </trkpt>
      <trkpt lat="45.17963" lon="5.91611">
        <ele>1529.8000488281</ele>
        <time>2013-09-08T08:05:52.000Z</time>
      </trkpt>
      <trkpt lat="45.17962" lon="5.91611">
        <ele>1530.1999511719</ele>
        <time>2013-09-08T08:05:53.000Z</time>
      </trkpt>
      <trkpt lat="45.17957" lon="5.91611">
        <ele>1531.5999755859</ele>
        <time>2013-09-08T08:05:57.000Z</time>
      </trkpt>
      <trkpt lat="45.17947" lon="5.91613">
        <ele>1534.5999755859</ele>
        <time>2013-09-08T08:06:04.000Z</time>
      </trkpt>
      <trkpt lat="45.17942" lon="5.91616">
        <ele>1536.4000244141</ele>
        <time>2013-09-08T08:06:08.000Z</time>
      </trkpt>
      <trkpt lat="45.17935" lon="5.91618">
        <ele>1538.5999755859</ele>
        <time>2013-09-08T08:06:14.000Z</time>
      </trkpt>
      <trkpt lat="45.17931" lon="5.91623">
        <ele>1540.8000488281</ele>
        <time>2013-09-08T08:06:18.000Z</time>
      </trkpt>
      <trkpt lat="45.17925" lon="5.91625">
        <ele>1542.8000488281</ele>
        <time>2013-09-08T08:06:23.000Z</time>
      </trkpt>
      <trkpt lat="45.17921" lon="5.91626">
        <ele>1544.4000244141</ele>
        <time>2013-09-08T08:06:28.000Z</time>
      </trkpt>
      <trkpt lat="45.17917" lon="5.91627">
        <ele>1545.8000488281</ele>
        <time>2013-09-08T08:06:31.000Z</time>
      </trkpt>
      <trkpt lat="45.1791" lon="5.91634">
        <ele>1548.4000244141</ele>
        <time>2013-09-08T08:06:37.000Z</time>
      </trkpt>
      <trkpt lat="45.17905" lon="5.91635">
        <ele>1549.4000244141</ele>
        <time>2013-09-08T08:06:40.000Z</time>
      </trkpt>
      <trkpt lat="45.17902" lon="5.91637">
        <ele>1550.1999511719</ele>
        <time>2013-09-08T08:06:43.000Z</time>
      </trkpt>
      <trkpt lat="45.17898" lon="5.91641">
        <ele>1551.8000488281</ele>
        <time>2013-09-08T08:06:48.000Z</time>
      </trkpt>
      <trkpt lat="45.17891" lon="5.91648">
        <ele>1554.8000488281</ele>
        <time>2013-09-08T08:06:56.000Z</time>
      </trkpt>
      <trkpt lat="45.17888" lon="5.91652">
        <ele>1556.4000244141</ele>
        <time>2013-09-08T08:07:00.000Z</time>
      </trkpt>
      <trkpt lat="45.17882" lon="5.91654">
        <ele>1558.1999511719</ele>
        <time>2013-09-08T08:07:07.000Z</time>
      </trkpt>
      <trkpt lat="45.17878" lon="5.91656">
        <ele>1559.4000244141</ele>
        <time>2013-09-08T08:07:10.000Z</time>
      </trkpt>
      <trkpt lat="45.17869" lon="5.91662">
        <ele>1562.8000488281</ele>
        <time>2013-09-08T08:07:18.000Z</time>
      </trkpt>
      <trkpt lat="45.1786" lon="5.91667">
        <ele>1566.1999511719</ele>
        <time>2013-09-08T08:07:25.000Z</time>
      </trkpt>
      <trkpt lat="45.17856" lon="5.91666">
        <ele>1566.5999755859</ele>
        <time>2013-09-08T08:07:29.000Z</time>
      </trkpt>
      <trkpt lat="45.1785" lon="5.91669">
        <ele>1568.5999755859</ele>
        <time>2013-09-08T08:07:36.000Z</time>
      </trkpt>
      <trkpt lat="45.17844" lon="5.91671">
        <ele>1570.5999755859</ele>
        <time>2013-09-08T08:07:41.000Z</time>
      </trkpt>
      <trkpt lat="45.17842" lon="5.91673">
        <ele>1571.4000244141</ele>
        <time>2013-09-08T08:07:44.000Z</time>
      </trkpt>
      <trkpt lat="45.17848" lon="5.91676">
        <ele>1571.4000244141</ele>
        <time>2013-09-08T08:07:50.000Z</time>
      </trkpt>
      <trkpt lat="45.17852" lon="5.91681">
        <ele>1572</ele>
        <time>2013-09-08T08:07:54.000Z</time>
      </trkpt>
      <trkpt lat="45.17854" lon="5.91682">
        <ele>1571.8000488281</ele>
        <time>2013-09-08T08:07:56.000Z</time>
      </trkpt>
      <trkpt lat="45.17857" lon="5.91682">
        <ele>1571</ele>
        <time>2013-09-08T08:08:00.000Z</time>
      </trkpt>
      <trkpt lat="45.17867" lon="5.9169">
        <ele>1570.5999755859</ele>
        <time>2013-09-08T08:08:06.000Z</time>
      </trkpt>
      <trkpt lat="45.17868" lon="5.91692">
        <ele>1570.5999755859</ele>
        <time>2013-09-08T08:08:07.000Z</time>
      </trkpt>
      <trkpt lat="45.17869" lon="5.91694">
        <ele>1571</ele>
        <time>2013-09-08T08:08:10.000Z</time>
      </trkpt>
      <trkpt lat="45.17877" lon="5.91698">
        <ele>1569.5999755859</ele>
        <time>2013-09-08T08:08:15.000Z</time>
      </trkpt>
      <trkpt lat="45.17885" lon="5.91702">
        <ele>1567.5999755859</ele>
        <time>2013-09-08T08:08:20.000Z</time>
      </trkpt>
      <trkpt lat="45.17887" lon="5.91702">
        <ele>1567</ele>
        <time>2013-09-08T08:08:21.000Z</time>
      </trkpt>
      <trkpt lat="45.17886" lon="5.91706">
        <ele>1568</ele>
        <time>2013-09-08T08:08:24.000Z</time>
      </trkpt>
      <trkpt lat="45.17884" lon="5.91706">
        <ele>1568.8000488281</ele>
        <time>2013-09-08T08:08:28.000Z</time>
      </trkpt>
      <trkpt lat="45.17877" lon="5.91708">
        <ele>1571.4000244141</ele>
        <time>2013-09-08T08:08:33.000Z</time>
      </trkpt>
      <trkpt lat="45.17868" lon="5.91705">
        <ele>1574</ele>
        <time>2013-09-08T08:08:37.000Z</time>
      </trkpt>
      <trkpt lat="45.17864" lon="5.91708">
        <ele>1576.1999511719</ele>
        <time>2013-09-08T08:08:39.000Z</time>
      </trkpt>
      <trkpt lat="45.1786" lon="5.91714">
        <ele>1579.4000244141</ele>
        <time>2013-09-08T08:08:44.000Z</time>
      </trkpt>
      <trkpt lat="45.17854" lon="5.91718">
        <ele>1583</ele>
        <time>2013-09-08T08:08:49.000Z</time>
      </trkpt>
      <trkpt lat="45.17849" lon="5.91717">
        <ele>1584.5999755859</ele>
        <time>2013-09-08T08:08:52.000Z</time>
      </trkpt>
      <trkpt lat="45.17844" lon="5.91716">
        <ele>1586.4000244141</ele>
        <time>2013-09-08T08:08:56.000Z</time>
      </trkpt>
      <trkpt lat="45.17841" lon="5.91717">
        <ele>1588</ele>
        <time>2013-09-08T08:09:01.000Z</time>
      </trkpt>
      <trkpt lat="45.17836" lon="5.91724">
        <ele>1592.4000244141</ele>
        <time>2013-09-08T08:09:06.000Z</time>
      </trkpt>
      <trkpt lat="45.17835" lon="5.91725">
        <ele>1593.1999511719</ele>
        <time>2013-09-08T08:09:07.000Z</time>
      </trkpt>
      <trkpt lat="45.1783" lon="5.91725">
        <ele>1594.4000244141</ele>
        <time>2013-09-08T08:09:13.000Z</time>
      </trkpt>
      <trkpt lat="45.17822" lon="5.91727">
        <ele>1596</ele>
        <time>2013-09-08T08:09:29.000Z</time>
      </trkpt>
      <trkpt lat="45.17819" lon="5.91727">
        <ele>1596.4000244141</ele>
        <time>2013-09-08T08:09:31.000Z</time>
      </trkpt>
      <trkpt lat="45.17817" lon="5.9173">
        <ele>1597.8000488281</ele>
        <time>2013-09-08T08:09:37.000Z</time>
      </trkpt>
      <trkpt lat="45.17816" lon="5.91733">
        <ele>1598.8000488281</ele>
        <time>2013-09-08T08:09:39.000Z</time>
      </trkpt>
      <trkpt lat="45.17812" lon="5.91734">
        <ele>1599.8000488281</ele>
        <time>2013-09-08T08:09:45.000Z</time>
      </trkpt>
      <trkpt lat="45.17811" lon="5.91735">
        <ele>1600.4000244141</ele>
        <time>2013-09-08T08:09:47.000Z</time>
      </trkpt>
      <trkpt lat="45.17806" lon="5.9174">
        <ele>1603</ele>
        <time>2013-09-08T08:09:52.000Z</time>
      </trkpt>
      <trkpt lat="45.17804" lon="5.91743">
        <ele>1604.5999755859</ele>
        <time>2013-09-08T08:09:56.000Z</time>
      </trkpt>
      <trkpt lat="45.17797" lon="5.91746">
        <ele>1606.4000244141</ele>
        <time>2013-09-08T08:10:03.000Z</time>
      </trkpt>
      <trkpt lat="45.17798" lon="5.91752">
        <ele>1608.4000244141</ele>
        <time>2013-09-08T08:10:08.000Z</time>
      </trkpt>
      <trkpt lat="45.17802" lon="5.91755">
        <ele>1608.5999755859</ele>
        <time>2013-09-08T08:10:14.000Z</time>
      </trkpt>
      <trkpt lat="45.17805" lon="5.91757">
        <ele>1609</ele>
        <time>2013-09-08T08:10:17.000Z</time>
      </trkpt>
      <trkpt lat="45.17807" lon="5.91761">
        <ele>1609.1999511719</ele>
        <time>2013-09-08T08:10:21.000Z</time>
      </trkpt>
      <trkpt lat="45.17811" lon="5.91766">
        <ele>1609.8000488281</ele>
        <time>2013-09-08T08:10:26.000Z</time>
      </trkpt>
      <trkpt lat="45.17814" lon="5.91768">
        <ele>1609.5999755859</ele>
        <time>2013-09-08T08:10:30.000Z</time>
      </trkpt>
      <trkpt lat="45.17819" lon="5.91771">
        <ele>1609.1999511719</ele>
        <time>2013-09-08T08:10:34.000Z</time>
      </trkpt>
      <trkpt lat="45.17825" lon="5.91774">
        <ele>1608.4000244141</ele>
        <time>2013-09-08T08:10:40.000Z</time>
      </trkpt>
      <trkpt lat="45.17834" lon="5.9178">
        <ele>1607</ele>
        <time>2013-09-08T08:10:47.000Z</time>
      </trkpt>
      <trkpt lat="45.17836" lon="5.91783">
        <ele>1606.1999511719</ele>
        <time>2013-09-08T08:10:50.000Z</time>
      </trkpt>
      <trkpt lat="45.1784" lon="5.91788">
        <ele>1603.8000488281</ele>
        <time>2013-09-08T08:10:55.000Z</time>
      </trkpt>
      <trkpt lat="45.17844" lon="5.91791">
        <ele>1601.8000488281</ele>
        <time>2013-09-08T08:10:59.000Z</time>
      </trkpt>
      <trkpt lat="45.17851" lon="5.91795">
        <ele>1597.5999755859</ele>
        <time>2013-09-08T08:11:05.000Z</time>
      </trkpt>
      <trkpt lat="45.17855" lon="5.91797">
        <ele>1595.4000244141</ele>
        <time>2013-09-08T08:11:07.000Z</time>
      </trkpt>
      <trkpt lat="45.17856" lon="5.91802">
        <ele>1594.8000488281</ele>
        <time>2013-09-08T08:11:11.000Z</time>
      </trkpt>
      <trkpt lat="45.17849" lon="5.91803">
        <ele>1600</ele>
        <time>2013-09-08T08:11:17.000Z</time>
      </trkpt>
      <trkpt lat="45.17845" lon="5.91802">
        <ele>1602.1999511719</ele>
        <time>2013-09-08T08:11:20.000Z</time>
      </trkpt>
      <trkpt lat="45.17839" lon="5.91804">
        <ele>1606.1999511719</ele>
        <time>2013-09-08T08:11:25.000Z</time>
      </trkpt>
      <trkpt lat="45.17839" lon="5.91803">
        <ele>1606.8000488281</ele>
        <time>2013-09-08T08:11:26.000Z</time>
      </trkpt>
      <trkpt lat="45.17836" lon="5.91802">
        <ele>1608.1999511719</ele>
        <time>2013-09-08T08:11:29.000Z</time>
      </trkpt>
      <trkpt lat="45.17825" lon="5.91798">
        <ele>1612</ele>
        <time>2013-09-08T08:11:36.000Z</time>
      </trkpt>
      <trkpt lat="45.17823" lon="5.91797">
        <ele>1612.4000244141</ele>
        <time>2013-09-08T08:11:40.000Z</time>
      </trkpt>
      <trkpt lat="45.17817" lon="5.91797">
        <ele>1614</ele>
        <time>2013-09-08T08:11:45.000Z</time>
      </trkpt>
      <trkpt lat="45.17813" lon="5.91799">
        <ele>1615.4000244141</ele>
        <time>2013-09-08T08:11:48.000Z</time>
      </trkpt>
      <trkpt lat="45.17812" lon="5.91799">
        <ele>1616</ele>
        <time>2013-09-08T08:11:51.000Z</time>
      </trkpt>
      <trkpt lat="45.17815" lon="5.91802">
        <ele>1615.5999755859</ele>
        <time>2013-09-08T08:11:55.000Z</time>
      </trkpt>
      <trkpt lat="45.17819" lon="5.91811">
        <ele>1616</ele>
        <time>2013-09-08T08:12:03.000Z</time>
      </trkpt>
      <trkpt lat="45.17826" lon="5.91818">
        <ele>1614.5999755859</ele>
        <time>2013-09-08T08:12:07.000Z</time>
      </trkpt>
      <trkpt lat="45.17832" lon="5.91827">
        <ele>1613.5999755859</ele>
        <time>2013-09-08T08:12:13.000Z</time>
      </trkpt>
      <trkpt lat="45.17837" lon="5.91831">
        <ele>1610.8000488281</ele>
        <time>2013-09-08T08:12:19.000Z</time>
      </trkpt>
      <trkpt lat="45.17832" lon="5.9183">
        <ele>1614.1999511719</ele>
        <time>2013-09-08T08:12:23.000Z</time>
      </trkpt>
      <trkpt lat="45.1782" lon="5.91826">
        <ele>1617.8000488281</ele>
        <time>2013-09-08T08:12:32.000Z</time>
      </trkpt>
      <trkpt lat="45.17811" lon="5.91829">
        <ele>1621.8000488281</ele>
        <time>2013-09-08T08:12:38.000Z</time>
      </trkpt>
      <trkpt lat="45.17804" lon="5.91831">
        <ele>1625</ele>
        <time>2013-09-08T08:12:43.000Z</time>
      </trkpt>
      <trkpt lat="45.17798" lon="5.91833">
        <ele>1627.5999755859</ele>
        <time>2013-09-08T08:12:48.000Z</time>
      </trkpt>
      <trkpt lat="45.17795" lon="5.91835">
        <ele>1629.1999511719</ele>
        <time>2013-09-08T08:12:52.000Z</time>
      </trkpt>
      <trkpt lat="45.17795" lon="5.91836">
        <ele>1629</ele>
        <time>2013-09-08T08:12:54.000Z</time>
      </trkpt>
      <trkpt lat="45.17804" lon="5.91843">
        <ele>1624.8000488281</ele>
        <time>2013-09-08T08:13:02.000Z</time>
      </trkpt>
      <trkpt lat="45.17807" lon="5.91849">
        <ele>1622.5999755859</ele>
        <time>2013-09-08T08:13:07.000Z</time>
      </trkpt>
      <trkpt lat="45.17809" lon="5.9185">
        <ele>1621.5999755859</ele>
        <time>2013-09-08T08:13:08.000Z</time>
      </trkpt>
      <trkpt lat="45.1781" lon="5.91854">
        <ele>1621</ele>
        <time>2013-09-08T08:13:12.000Z</time>
      </trkpt>
      <trkpt lat="45.17805" lon="5.91853">
        <ele>1623.1999511719</ele>
        <time>2013-09-08T08:13:16.000Z</time>
      </trkpt>
      <trkpt lat="45.17798" lon="5.91851">
        <ele>1626.8000488281</ele>
        <time>2013-09-08T08:13:21.000Z</time>
      </trkpt>
      <trkpt lat="45.17789" lon="5.91848">
        <ele>1631</ele>
        <time>2013-09-08T08:13:27.000Z</time>
      </trkpt>
      <trkpt lat="45.17783" lon="5.91848">
        <ele>1633.5999755859</ele>
        <time>2013-09-08T08:13:33.000Z</time>
      </trkpt>
      <trkpt lat="45.17777" lon="5.91851">
        <ele>1636.1999511719</ele>
        <time>2013-09-08T08:13:37.000Z</time>
      </trkpt>
      <trkpt lat="45.1777" lon="5.91852">
        <ele>1639.4000244141</ele>
        <time>2013-09-08T08:13:44.000Z</time>
      </trkpt>
      <trkpt lat="45.17767" lon="5.91853">
        <ele>1640.8000488281</ele>
        <time>2013-09-08T08:13:47.000Z</time>
      </trkpt>
      <trkpt lat="45.17765" lon="5.91855">
        <ele>1642</ele>
        <time>2013-09-08T08:13:50.000Z</time>
      </trkpt>
      <trkpt lat="45.17759" lon="5.91857">
        <ele>1644.8000488281</ele>
        <time>2013-09-08T08:13:55.000Z</time>
      </trkpt>
      <trkpt lat="45.17758" lon="5.91858">
        <ele>1645.1999511719</ele>
        <time>2013-09-08T08:13:57.000Z</time>
      </trkpt>
      <trkpt lat="45.17762" lon="5.91866">
        <ele>1644</ele>
        <time>2013-09-08T08:14:03.000Z</time>
      </trkpt>
      <trkpt lat="45.17769" lon="5.91873">
        <ele>1640.8000488281</ele>
        <time>2013-09-08T08:14:09.000Z</time>
      </trkpt>
      <trkpt lat="45.1777" lon="5.91874">
        <ele>1640.1999511719</ele>
        <time>2013-09-08T08:14:10.000Z</time>
      </trkpt>
      <trkpt lat="45.17772" lon="5.91879">
        <ele>1639</ele>
        <time>2013-09-08T08:14:13.000Z</time>
      </trkpt>
      <trkpt lat="45.17777" lon="5.91887">
        <ele>1636.5999755859</ele>
        <time>2013-09-08T08:14:19.000Z</time>
      </trkpt>
      <trkpt lat="45.17773" lon="5.91888">
        <ele>1638.4000244141</ele>
        <time>2013-09-08T08:14:24.000Z</time>
      </trkpt>
      <trkpt lat="45.17769" lon="5.91892">
        <ele>1641</ele>
        <time>2013-09-08T08:14:30.000Z</time>
      </trkpt>
      <trkpt lat="45.17769" lon="5.91897">
        <ele>1641.1999511719</ele>
        <time>2013-09-08T08:14:36.000Z</time>
      </trkpt>
      <trkpt lat="45.17766" lon="5.919">
        <ele>1643.4000244141</ele>
        <time>2013-09-08T08:14:40.000Z</time>
      </trkpt>
      <trkpt lat="45.17761" lon="5.91901">
        <ele>1646.1999511719</ele>
        <time>2013-09-08T08:14:44.000Z</time>
      </trkpt>
      <trkpt lat="45.17758" lon="5.91903">
        <ele>1648.4000244141</ele>
        <time>2013-09-08T08:14:48.000Z</time>
      </trkpt>
      <trkpt lat="45.17755" lon="5.91906">
        <ele>1651</ele>
        <time>2013-09-08T08:14:52.000Z</time>
      </trkpt>
      <trkpt lat="45.17752" lon="5.91912">
        <ele>1652.8000488281</ele>
        <time>2013-09-08T08:14:58.000Z</time>
      </trkpt>
      <trkpt lat="45.17754" lon="5.91916">
        <ele>1652</ele>
        <time>2013-09-08T08:15:00.000Z</time>
      </trkpt>
      <trkpt lat="45.17757" lon="5.91923">
        <ele>1649.1999511719</ele>
        <time>2013-09-08T08:15:05.000Z</time>
      </trkpt>
      <trkpt lat="45.17754" lon="5.91935">
        <ele>1650.4000244141</ele>
        <time>2013-09-08T08:15:11.000Z</time>
      </trkpt>
      <trkpt lat="45.17754" lon="5.91941">
        <ele>1649.8000488281</ele>
        <time>2013-09-08T08:15:15.000Z</time>
      </trkpt>
      <trkpt lat="45.17754" lon="5.91947">
        <ele>1649.4000244141</ele>
        <time>2013-09-08T08:15:18.000Z</time>
      </trkpt>
      <trkpt lat="45.17756" lon="5.91961">
        <ele>1646.1999511719</ele>
        <time>2013-09-08T08:15:25.000Z</time>
      </trkpt>
      <trkpt lat="45.17757" lon="5.91971">
        <ele>1644.1999511719</ele>
        <time>2013-09-08T08:15:30.000Z</time>
      </trkpt>
      <trkpt lat="45.17752" lon="5.91977">
        <ele>1647.5999755859</ele>
        <time>2013-09-08T08:15:35.000Z</time>
      </trkpt>
      <trkpt lat="45.17745" lon="5.91981">
        <ele>1651.5999755859</ele>
        <time>2013-09-08T08:15:40.000Z</time>
      </trkpt>
      <trkpt lat="45.17733" lon="5.91985">
        <ele>1657.5999755859</ele>
        <time>2013-09-08T08:15:47.000Z</time>
      </trkpt>
      <trkpt lat="45.17727" lon="5.91985">
        <ele>1660.5999755859</ele>
        <time>2013-09-08T08:15:49.000Z</time>
      </trkpt>
      <trkpt lat="45.17722" lon="5.92005">
        <ele>1661.8000488281</ele>
        <time>2013-09-08T08:15:57.000Z</time>
      </trkpt>
      <trkpt lat="45.17712" lon="5.92023">
        <ele>1663.5999755859</ele>
        <time>2013-09-08T08:16:02.000Z</time>
      </trkpt>
      <trkpt lat="45.1771" lon="5.92042">
        <ele>1660.8000488281</ele>
        <time>2013-09-08T08:16:06.000Z</time>
      </trkpt>
      <trkpt lat="45.1771" lon="5.9205">
        <ele>1659</ele>
        <time>2013-09-08T08:16:09.000Z</time>
      </trkpt>
      <trkpt lat="45.17701" lon="5.9206">
        <ele>1661.5999755859</ele>
        <time>2013-09-08T08:16:15.000Z</time>
      </trkpt>
      <trkpt lat="45.1769" lon="5.92062">
        <ele>1667.4000244141</ele>
        <time>2013-09-08T08:16:20.000Z</time>
      </trkpt>
      <trkpt lat="45.17678" lon="5.92065">
        <ele>1673</ele>
        <time>2013-09-08T08:16:26.000Z</time>
      </trkpt>
      <trkpt lat="45.17671" lon="5.92066">
        <ele>1676.5999755859</ele>
        <time>2013-09-08T08:16:29.000Z</time>
      </trkpt>
      <trkpt lat="45.17661" lon="5.92079">
        <ele>1679.1999511719</ele>
        <time>2013-09-08T08:16:35.000Z</time>
      </trkpt>
      <trkpt lat="45.17658" lon="5.92083">
        <ele>1680.1999511719</ele>
        <time>2013-09-08T08:16:37.000Z</time>
      </trkpt>
      <trkpt lat="45.1765" lon="5.92103">
        <ele>1678.8000488281</ele>
        <time>2013-09-08T08:16:42.000Z</time>
      </trkpt>
      <trkpt lat="45.17643" lon="5.92116">
        <ele>1679.4000244141</ele>
        <time>2013-09-08T08:16:47.000Z</time>
      </trkpt>
      <trkpt lat="45.17634" lon="5.92126">
        <ele>1681.4000244141</ele>
        <time>2013-09-08T08:16:52.000Z</time>
      </trkpt>
      <trkpt lat="45.17629" lon="5.92128">
        <ele>1683.5999755859</ele>
        <time>2013-09-08T08:16:54.000Z</time>
      </trkpt>
      <trkpt lat="45.17624" lon="5.92135">
        <ele>1684.5999755859</ele>
        <time>2013-09-08T08:16:57.000Z</time>
      </trkpt>
      <trkpt lat="45.17617" lon="5.92144">
        <ele>1685.5999755859</ele>
        <time>2013-09-08T08:17:02.000Z</time>
      </trkpt>
      <trkpt lat="45.17612" lon="5.92146">
        <ele>1688.1999511719</ele>
        <time>2013-09-08T08:17:04.000Z</time>
      </trkpt>
      <trkpt lat="45.17604" lon="5.92148">
        <ele>1692.1999511719</ele>
        <time>2013-09-08T08:17:07.000Z</time>
      </trkpt>
      <trkpt lat="45.17594" lon="5.9216">
        <ele>1693.8000488281</ele>
        <time>2013-09-08T08:17:13.000Z</time>
      </trkpt>
      <trkpt lat="45.17593" lon="5.92163">
        <ele>1693.1999511719</ele>
        <time>2013-09-08T08:17:14.000Z</time>
      </trkpt>
      <trkpt lat="45.17589" lon="5.92173">
        <ele>1693.1999511719</ele>
        <time>2013-09-08T08:17:19.000Z</time>
      </trkpt>
      <trkpt lat="45.17579" lon="5.92181">
        <ele>1697.5999755859</ele>
        <time>2013-09-08T08:17:25.000Z</time>
      </trkpt>
      <trkpt lat="45.17572" lon="5.9219">
        <ele>1700</ele>
        <time>2013-09-08T08:17:29.000Z</time>
      </trkpt>
      <trkpt lat="45.17562" lon="5.9221">
        <ele>1701.1999511719</ele>
        <time>2013-09-08T08:17:37.000Z</time>
      </trkpt>
      <trkpt lat="45.17562" lon="5.92213">
        <ele>1700.4000244141</ele>
        <time>2013-09-08T08:17:38.000Z</time>
      </trkpt>
      <trkpt lat="45.17559" lon="5.92225">
        <ele>1699.1999511719</ele>
        <time>2013-09-08T08:17:43.000Z</time>
      </trkpt>
      <trkpt lat="45.17557" lon="5.92232">
        <ele>1698.5999755859</ele>
        <time>2013-09-08T08:17:47.000Z</time>
      </trkpt>
      <trkpt lat="45.17556" lon="5.92236">
        <ele>1698.1999511719</ele>
        <time>2013-09-08T08:17:49.000Z</time>
      </trkpt>
      <trkpt lat="45.17549" lon="5.92248">
        <ele>1698.5999755859</ele>
        <time>2013-09-08T08:17:55.000Z</time>
      </trkpt>
      <trkpt lat="45.17545" lon="5.92261">
        <ele>1699</ele>
        <time>2013-09-08T08:18:00.000Z</time>
      </trkpt>
      <trkpt lat="45.17546" lon="5.92268">
        <ele>1698</ele>
        <time>2013-09-08T08:18:02.000Z</time>
      </trkpt>
      <trkpt lat="45.17555" lon="5.92284">
        <ele>1692</ele>
        <time>2013-09-08T08:18:06.000Z</time>
      </trkpt>
      <trkpt lat="45.17566" lon="5.92297">
        <ele>1685.1999511719</ele>
        <time>2013-09-08T08:18:10.000Z</time>
      </trkpt>
      <trkpt lat="45.1757" lon="5.92304">
        <ele>1682.5999755859</ele>
        <time>2013-09-08T08:18:12.000Z</time>
      </trkpt>
      <trkpt lat="45.17576" lon="5.92323">
        <ele>1678.4000244141</ele>
        <time>2013-09-08T08:18:17.000Z</time>
      </trkpt>
      <trkpt lat="45.17581" lon="5.92336">
        <ele>1676</ele>
        <time>2013-09-08T08:18:20.000Z</time>
      </trkpt>
      <trkpt lat="45.17576" lon="5.9235">
        <ele>1678</ele>
        <time>2013-09-08T08:18:25.000Z</time>
      </trkpt>
      <trkpt lat="45.17571" lon="5.92351">
        <ele>1679.8000488281</ele>
        <time>2013-09-08T08:18:27.000Z</time>
      </trkpt>
      <trkpt lat="45.17557" lon="5.92355">
        <ele>1685.5999755859</ele>
        <time>2013-09-08T08:18:32.000Z</time>
      </trkpt>
      <trkpt lat="45.17546" lon="5.9236">
        <ele>1689.8000488281</ele>
        <time>2013-09-08T08:18:37.000Z</time>
      </trkpt>
      <trkpt lat="45.1753" lon="5.92369">
        <ele>1695</ele>
        <time>2013-09-08T08:18:42.000Z</time>
      </trkpt>
      <trkpt lat="45.17515" lon="5.92383">
        <ele>1699.5999755859</ele>
        <time>2013-09-08T08:18:47.000Z</time>
      </trkpt>
      <trkpt lat="45.17504" lon="5.924">
        <ele>1701.4000244141</ele>
        <time>2013-09-08T08:18:51.000Z</time>
      </trkpt>
      <trkpt lat="45.17495" lon="5.92419">
        <ele>1702.4000244141</ele>
        <time>2013-09-08T08:18:56.000Z</time>
      </trkpt>
      <trkpt lat="45.17486" lon="5.92428">
        <ele>1705</ele>
        <time>2013-09-08T08:19:01.000Z</time>
      </trkpt>
      <trkpt lat="45.17481" lon="5.92436">
        <ele>1706.1999511719</ele>
        <time>2013-09-08T08:19:05.000Z</time>
      </trkpt>
      <trkpt lat="45.17474" lon="5.92444">
        <ele>1708.1999511719</ele>
        <time>2013-09-08T08:19:10.000Z</time>
      </trkpt>
      <trkpt lat="45.1747" lon="5.92448">
        <ele>1709.4000244141</ele>
        <time>2013-09-08T08:19:13.000Z</time>
      </trkpt>
      <trkpt lat="45.17472" lon="5.92459">
        <ele>1708.5999755859</ele>
        <time>2013-09-08T08:19:18.000Z</time>
      </trkpt>
      <trkpt lat="45.17475" lon="5.92474">
        <ele>1707.5999755859</ele>
        <time>2013-09-08T08:19:23.000Z</time>
      </trkpt>
      <trkpt lat="45.17478" lon="5.92482">
        <ele>1706.5999755859</ele>
        <time>2013-09-08T08:19:27.000Z</time>
      </trkpt>
      <trkpt lat="45.17489" lon="5.9249">
        <ele>1704</ele>
        <time>2013-09-08T08:19:33.000Z</time>
      </trkpt>
      <trkpt lat="45.17513" lon="5.92505">
        <ele>1696.8000488281</ele>
        <time>2013-09-08T08:20:27.000Z</time>
      </trkpt>
      <trkpt lat="45.17524" lon="5.92513">
        <ele>1693.1999511719</ele>
        <time>2013-09-08T08:20:36.000Z</time>
      </trkpt>
      <trkpt lat="45.17525" lon="5.92514">
        <ele>1692.5999755859</ele>
        <time>2013-09-08T08:20:38.000Z</time>
      </trkpt>
      <trkpt lat="45.17527" lon="5.92521">
        <ele>1691.5999755859</ele>
        <time>2013-09-08T08:20:44.000Z</time>
      </trkpt>
      <trkpt lat="45.17527" lon="5.92523">
        <ele>1691.4000244141</ele>
        <time>2013-09-08T08:20:45.000Z</time>
      </trkpt>
      <trkpt lat="45.17521" lon="5.92522">
        <ele>1693.5999755859</ele>
        <time>2013-09-08T08:20:50.000Z</time>
      </trkpt>
      <trkpt lat="45.17514" lon="5.92519">
        <ele>1696.4000244141</ele>
        <time>2013-09-08T08:20:55.000Z</time>
      </trkpt>
      <trkpt lat="45.17507" lon="5.9252">
        <ele>1698.8000488281</ele>
        <time>2013-09-08T08:20:59.000Z</time>
      </trkpt>
      <trkpt lat="45.17495" lon="5.92523">
        <ele>1702.8000488281</ele>
        <time>2013-09-08T08:21:06.000Z</time>
      </trkpt>
      <trkpt lat="45.17486" lon="5.92527">
        <ele>1705.5999755859</ele>
        <time>2013-09-08T08:21:11.000Z</time>
      </trkpt>
      <trkpt lat="45.17476" lon="5.92531">
        <ele>1709</ele>
        <time>2013-09-08T08:21:18.000Z</time>
      </trkpt>
      <trkpt lat="45.17468" lon="5.92536">
        <ele>1712.4000244141</ele>
        <time>2013-09-08T08:21:24.000Z</time>
      </trkpt>
      <trkpt lat="45.17456" lon="5.92542">
        <ele>1717</ele>
        <time>2013-09-08T08:21:30.000Z</time>
      </trkpt>
      <trkpt lat="45.17452" lon="5.92545">
        <ele>1718.8000488281</ele>
        <time>2013-09-08T08:21:33.000Z</time>
      </trkpt>
      <trkpt lat="45.17441" lon="5.92551">
        <ele>1723.5999755859</ele>
        <time>2013-09-08T08:21:39.000Z</time>
      </trkpt>
      <trkpt lat="45.17431" lon="5.92556">
        <ele>1728</ele>
        <time>2013-09-08T08:21:44.000Z</time>
      </trkpt>
      <trkpt lat="45.17421" lon="5.92562">
        <ele>1733</ele>
        <time>2013-09-08T08:21:50.000Z</time>
      </trkpt>
      <trkpt lat="45.17417" lon="5.92569">
        <ele>1736.1999511719</ele>
        <time>2013-09-08T08:21:56.000Z</time>
      </trkpt>
      <trkpt lat="45.17411" lon="5.92575">
        <ele>1738</ele>
        <time>2013-09-08T08:22:00.000Z</time>
      </trkpt>
      <trkpt lat="45.17402" lon="5.92585">
        <ele>1740.5999755859</ele>
        <time>2013-09-08T08:22:06.000Z</time>
      </trkpt>
      <trkpt lat="45.17396" lon="5.92592">
        <ele>1742.1999511719</ele>
        <time>2013-09-08T08:22:11.000Z</time>
      </trkpt>
      <trkpt lat="45.17386" lon="5.92602">
        <ele>1745</ele>
        <time>2013-09-08T08:22:18.000Z</time>
      </trkpt>
      <trkpt lat="45.1738" lon="5.9261">
        <ele>1747.1999511719</ele>
        <time>2013-09-08T08:22:24.000Z</time>
      </trkpt>
      <trkpt lat="45.17378" lon="5.92612">
        <ele>1748</ele>
        <time>2013-09-08T08:22:26.000Z</time>
      </trkpt>
      <trkpt lat="45.17373" lon="5.92619">
        <ele>1750.1999511719</ele>
        <time>2013-09-08T08:22:31.000Z</time>
      </trkpt>
      <trkpt lat="45.17367" lon="5.92626">
        <ele>1752.4000244141</ele>
        <time>2013-09-08T08:22:39.000Z</time>
      </trkpt>
      <trkpt lat="45.1736" lon="5.92632">
        <ele>1755.1999511719</ele>
        <time>2013-09-08T08:22:48.000Z</time>
      </trkpt>
      <trkpt lat="45.17352" lon="5.9264">
        <ele>1758.5999755859</ele>
        <time>2013-09-08T08:22:57.000Z</time>
      </trkpt>
      <trkpt lat="45.17351" lon="5.9264">
        <ele>1758.8000488281</ele>
        <time>2013-09-08T08:22:58.000Z</time>
      </trkpt>
      <trkpt lat="45.17341" lon="5.92647">
        <ele>1762.5999755859</ele>
        <time>2013-09-08T08:23:07.000Z</time>
      </trkpt>
      <trkpt lat="45.17338" lon="5.9265">
        <ele>1764.4000244141</ele>
        <time>2013-09-08T08:23:12.000Z</time>
      </trkpt>
      <trkpt lat="45.17334" lon="5.92657">
        <ele>1767</ele>
        <time>2013-09-08T08:23:18.000Z</time>
      </trkpt>
      <trkpt lat="45.17332" lon="5.92661">
        <ele>1768.5999755859</ele>
        <time>2013-09-08T08:23:22.000Z</time>
      </trkpt>
      <trkpt lat="45.17331" lon="5.92664">
        <ele>1769.5999755859</ele>
        <time>2013-09-08T08:23:25.000Z</time>
      </trkpt>
      <trkpt lat="45.17332" lon="5.92667">
        <ele>1770.4000244141</ele>
        <time>2013-09-08T08:23:30.000Z</time>
      </trkpt>
      <trkpt lat="45.1734" lon="5.92669">
        <ele>1768.5999755859</ele>
        <time>2013-09-08T08:23:36.000Z</time>
      </trkpt>
      <trkpt lat="45.17343" lon="5.92669">
        <ele>1767.8000488281</ele>
        <time>2013-09-08T08:23:38.000Z</time>
      </trkpt>
      <trkpt lat="45.17359" lon="5.92663">
        <ele>1762.4000244141</ele>
        <time>2013-09-08T08:23:45.000Z</time>
      </trkpt>
      <trkpt lat="45.17371" lon="5.92658">
        <ele>1758.4000244141</ele>
        <time>2013-09-08T08:23:51.000Z</time>
      </trkpt>
      <trkpt lat="45.17379" lon="5.92657">
        <ele>1756</ele>
        <time>2013-09-08T08:23:56.000Z</time>
      </trkpt>
      <trkpt lat="45.17385" lon="5.92652">
        <ele>1753.8000488281</ele>
        <time>2013-09-08T08:24:00.000Z</time>
      </trkpt>
      <trkpt lat="45.17386" lon="5.92652">
        <ele>1753.4000244141</ele>
        <time>2013-09-08T08:24:01.000Z</time>
      </trkpt>
      <trkpt lat="45.17384" lon="5.92654">
        <ele>1754.1999511719</ele>
        <time>2013-09-08T08:24:04.000Z</time>
      </trkpt>
      <trkpt lat="45.17376" lon="5.92657">
        <ele>1756.5999755859</ele>
        <time>2013-09-08T08:24:09.000Z</time>
      </trkpt>
      <trkpt lat="45.17375" lon="5.92658">
        <ele>1757.1999511719</ele>
        <time>2013-09-08T08:24:10.000Z</time>
      </trkpt>
      <trkpt lat="45.17371" lon="5.9266">
        <ele>1758.4000244141</ele>
        <time>2013-09-08T08:24:12.000Z</time>
      </trkpt>
      <trkpt lat="45.17364" lon="5.92669">
        <ele>1762.1999511719</ele>
        <time>2013-09-08T08:24:18.000Z</time>
      </trkpt>
      <trkpt lat="45.17355" lon="5.92675">
        <ele>1765.5999755859</ele>
        <time>2013-09-08T08:24:24.000Z</time>
      </trkpt>
      <trkpt lat="45.17347" lon="5.92681">
        <ele>1768.8000488281</ele>
        <time>2013-09-08T08:24:29.000Z</time>
      </trkpt>
      <trkpt lat="45.17346" lon="5.92682">
        <ele>1769.5999755859</ele>
        <time>2013-09-08T08:24:30.000Z</time>
      </trkpt>
      <trkpt lat="45.17343" lon="5.9269">
        <ele>1771.8000488281</ele>
        <time>2013-09-08T08:24:34.000Z</time>
      </trkpt>
      <trkpt lat="45.17339" lon="5.92696">
        <ele>1774.1999511719</ele>
        <time>2013-09-08T08:24:38.000Z</time>
      </trkpt>
      <trkpt lat="45.1733" lon="5.92708">
        <ele>1779.1999511719</ele>
        <time>2013-09-08T08:24:44.000Z</time>
      </trkpt>
      <trkpt lat="45.17326" lon="5.92714">
        <ele>1781.5999755859</ele>
        <time>2013-09-08T08:24:49.000Z</time>
      </trkpt>
      <trkpt lat="45.17321" lon="5.9272">
        <ele>1784.5999755859</ele>
        <time>2013-09-08T08:24:54.000Z</time>
      </trkpt>
      <trkpt lat="45.17319" lon="5.9273">
        <ele>1787.4000244141</ele>
        <time>2013-09-08T08:24:59.000Z</time>
      </trkpt>
      <trkpt lat="45.17322" lon="5.92742">
        <ele>1789.4000244141</ele>
        <time>2013-09-08T08:25:04.000Z</time>
      </trkpt>
      <trkpt lat="45.17322" lon="5.9275">
        <ele>1791.1999511719</ele>
        <time>2013-09-08T08:25:08.000Z</time>
      </trkpt>
      <trkpt lat="45.17324" lon="5.9276">
        <ele>1793</ele>
        <time>2013-09-08T08:25:14.000Z</time>
      </trkpt>
      <trkpt lat="45.17321" lon="5.92766">
        <ele>1795.4000244141</ele>
        <time>2013-09-08T08:25:18.000Z</time>
      </trkpt>
      <trkpt lat="45.17322" lon="5.92774">
        <ele>1797.1999511719</ele>
        <time>2013-09-08T08:25:21.000Z</time>
      </trkpt>
      <trkpt lat="45.17322" lon="5.92792">
        <ele>1801.1999511719</ele>
        <time>2013-09-08T08:25:28.000Z</time>
      </trkpt>
      <trkpt lat="45.17328" lon="5.92804">
        <ele>1802.1999511719</ele>
        <time>2013-09-08T08:25:34.000Z</time>
      </trkpt>
      <trkpt lat="45.17328" lon="5.92812">
        <ele>1803.8000488281</ele>
        <time>2013-09-08T08:25:40.000Z</time>
      </trkpt>
      <trkpt lat="45.17328" lon="5.92813">
        <ele>1804</ele>
        <time>2013-09-08T08:25:42.000Z</time>
      </trkpt>
      <trkpt lat="45.17333" lon="5.92816">
        <ele>1803</ele>
        <time>2013-09-08T08:25:46.000Z</time>
      </trkpt>
      <trkpt lat="45.17337" lon="5.92823">
        <ele>1803.8000488281</ele>
        <time>2013-09-08T08:25:53.000Z</time>
      </trkpt>
      <trkpt lat="45.17338" lon="5.92828">
        <ele>1804.8000488281</ele>
        <time>2013-09-08T08:25:59.000Z</time>
      </trkpt>
      <trkpt lat="45.17339" lon="5.92834">
        <ele>1806</ele>
        <time>2013-09-08T08:26:04.000Z</time>
      </trkpt>
      <trkpt lat="45.17346" lon="5.92844">
        <ele>1808.4000244141</ele>
        <time>2013-09-08T08:26:12.000Z</time>
      </trkpt>
      <trkpt lat="45.17354" lon="5.9285">
        <ele>1809.1999511719</ele>
        <time>2013-09-08T08:26:17.000Z</time>
      </trkpt>
      <trkpt lat="45.1736" lon="5.92853">
        <ele>1809</ele>
        <time>2013-09-08T08:26:20.000Z</time>
      </trkpt>
      <trkpt lat="45.17367" lon="5.92854">
        <ele>1808.4000244141</ele>
        <time>2013-09-08T08:26:25.000Z</time>
      </trkpt>
      <trkpt lat="45.17374" lon="5.92856">
        <ele>1807.8000488281</ele>
        <time>2013-09-08T08:26:30.000Z</time>
      </trkpt>
      <trkpt lat="45.17375" lon="5.9286">
        <ele>1808.8000488281</ele>
        <time>2013-09-08T08:26:35.000Z</time>
      </trkpt>
      <trkpt lat="45.17376" lon="5.92865">
        <ele>1810.1999511719</ele>
        <time>2013-09-08T08:26:40.000Z</time>
      </trkpt>
      <trkpt lat="45.17379" lon="5.9287">
        <ele>1811.1999511719</ele>
        <time>2013-09-08T08:26:44.000Z</time>
      </trkpt>
      <trkpt lat="45.1738" lon="5.9288">
        <ele>1814</ele>
        <time>2013-09-08T08:26:49.000Z</time>
      </trkpt>
      <trkpt lat="45.1738" lon="5.92889">
        <ele>1816.5999755859</ele>
        <time>2013-09-08T08:26:54.000Z</time>
      </trkpt>
      <trkpt lat="45.17382" lon="5.92893">
        <ele>1817.5999755859</ele>
        <time>2013-09-08T08:26:57.000Z</time>
      </trkpt>
      <trkpt lat="45.17385" lon="5.929">
        <ele>1819</ele>
        <time>2013-09-08T08:27:02.000Z</time>
      </trkpt>
      <trkpt lat="45.17387" lon="5.92901">
        <ele>1819.1999511719</ele>
        <time>2013-09-08T08:27:06.000Z</time>
      </trkpt>
      <trkpt lat="45.1739" lon="5.92914">
        <ele>1822.5999755859</ele>
        <time>2013-09-08T08:27:14.000Z</time>
      </trkpt>
      <trkpt lat="45.17394" lon="5.92921">
        <ele>1823.8000488281</ele>
        <time>2013-09-08T08:27:21.000Z</time>
      </trkpt>
      <trkpt lat="45.17393" lon="5.92928">
        <ele>1826.5999755859</ele>
        <time>2013-09-08T08:27:56.000Z</time>
      </trkpt>
      <trkpt lat="45.17398" lon="5.92937">
        <ele>1828.4000244141</ele>
        <time>2013-09-08T08:28:01.000Z</time>
      </trkpt>
      <trkpt lat="45.17399" lon="5.92945">
        <ele>1831.1999511719</ele>
        <time>2013-09-08T08:28:06.000Z</time>
      </trkpt>
      <trkpt lat="45.17402" lon="5.9295">
        <ele>1832</ele>
        <time>2013-09-08T08:28:09.000Z</time>
      </trkpt>
      <trkpt lat="45.17404" lon="5.92953">
        <ele>1832.8000488281</ele>
        <time>2013-09-08T08:28:15.000Z</time>
      </trkpt>
      <trkpt lat="45.17409" lon="5.92954">
        <ele>1832.1999511719</ele>
        <time>2013-09-08T08:28:21.000Z</time>
      </trkpt>
      <trkpt lat="45.1741" lon="5.92955">
        <ele>1832.1999511719</ele>
        <time>2013-09-08T08:28:22.000Z</time>
      </trkpt>
      <trkpt lat="45.1741" lon="5.9296">
        <ele>1833.5999755859</ele>
        <time>2013-09-08T08:28:26.000Z</time>
      </trkpt>
      <trkpt lat="45.17413" lon="5.92962">
        <ele>1834</ele>
        <time>2013-09-08T08:28:29.000Z</time>
      </trkpt>
      <trkpt lat="45.17414" lon="5.92964">
        <ele>1834.5999755859</ele>
        <time>2013-09-08T08:28:31.000Z</time>
      </trkpt>
      <trkpt lat="45.17416" lon="5.9297">
        <ele>1835.8000488281</ele>
        <time>2013-09-08T08:28:37.000Z</time>
      </trkpt>
      <trkpt lat="45.17418" lon="5.92973">
        <ele>1836</ele>
        <time>2013-09-08T08:28:40.000Z</time>
      </trkpt>
      <trkpt lat="45.17419" lon="5.92975">
        <ele>1836.8000488281</ele>
        <time>2013-09-08T08:28:42.000Z</time>
      </trkpt>
      <trkpt lat="45.1742" lon="5.92979">
        <ele>1837.5999755859</ele>
        <time>2013-09-08T08:28:46.000Z</time>
      </trkpt>
      <trkpt lat="45.17423" lon="5.92991">
        <ele>1840.4000244141</ele>
        <time>2013-09-08T08:28:55.000Z</time>
      </trkpt>
      <trkpt lat="45.17423" lon="5.92994">
        <ele>1841.4000244141</ele>
        <time>2013-09-08T08:28:58.000Z</time>
      </trkpt>
      <trkpt lat="45.17425" lon="5.92998">
        <ele>1841.8000488281</ele>
        <time>2013-09-08T08:29:01.000Z</time>
      </trkpt>
      <trkpt lat="45.1743" lon="5.93002">
        <ele>1841</ele>
        <time>2013-09-08T08:29:07.000Z</time>
      </trkpt>
      <trkpt lat="45.17432" lon="5.93006">
        <ele>1841.5999755859</ele>
        <time>2013-09-08T08:29:10.000Z</time>
      </trkpt>
      <trkpt lat="45.17433" lon="5.9301">
        <ele>1842.5999755859</ele>
        <time>2013-09-08T08:29:13.000Z</time>
      </trkpt>
      <trkpt lat="45.17432" lon="5.93018">
        <ele>1845.5999755859</ele>
        <time>2013-09-08T08:29:17.000Z</time>
      </trkpt>
      <trkpt lat="45.17438" lon="5.93036">
        <ele>1849</ele>
        <time>2013-09-08T08:29:23.000Z</time>
      </trkpt>
      <trkpt lat="45.17441" lon="5.93052">
        <ele>1852.8000488281</ele>
        <time>2013-09-08T08:29:28.000Z</time>
      </trkpt>
      <trkpt lat="45.17445" lon="5.9307">
        <ele>1857.1999511719</ele>
        <time>2013-09-08T08:29:34.000Z</time>
      </trkpt>
      <trkpt lat="45.17442" lon="5.93077">
        <ele>1860.4000244141</ele>
        <time>2013-09-08T08:29:38.000Z</time>
      </trkpt>
      <trkpt lat="45.17444" lon="5.93087">
        <ele>1862.1999511719</ele>
        <time>2013-09-08T08:29:43.000Z</time>
      </trkpt>
      <trkpt lat="45.17444" lon="5.93093">
        <ele>1863.4000244141</ele>
        <time>2013-09-08T08:29:46.000Z</time>
      </trkpt>
      <trkpt lat="45.17445" lon="5.93099">
        <ele>1864.5999755859</ele>
        <time>2013-09-08T08:29:51.000Z</time>
      </trkpt>
      <trkpt lat="45.17446" lon="5.93107">
        <ele>1865.4000244141</ele>
        <time>2013-09-08T08:29:57.000Z</time>
      </trkpt>
      <trkpt lat="45.17447" lon="5.9311">
        <ele>1865.8000488281</ele>
        <time>2013-09-08T08:29:59.000Z</time>
      </trkpt>
      <trkpt lat="45.17447" lon="5.93115">
        <ele>1866.8000488281</ele>
        <time>2013-09-08T08:30:03.000Z</time>
      </trkpt>
      <trkpt lat="45.17448" lon="5.93128">
        <ele>1868.8000488281</ele>
        <time>2013-09-08T08:30:10.000Z</time>
      </trkpt>
      <trkpt lat="45.17453" lon="5.93134">
        <ele>1868.5999755859</ele>
        <time>2013-09-08T08:30:15.000Z</time>
      </trkpt>
      <trkpt lat="45.17461" lon="5.93141">
        <ele>1867.5999755859</ele>
        <time>2013-09-08T08:30:21.000Z</time>
      </trkpt>
      <trkpt lat="45.17461" lon="5.93149">
        <ele>1869.1999511719</ele>
        <time>2013-09-08T08:30:27.000Z</time>
      </trkpt>
      <trkpt lat="45.17464" lon="5.93152">
        <ele>1869.4000244141</ele>
        <time>2013-09-08T08:30:33.000Z</time>
      </trkpt>
      <trkpt lat="45.17471" lon="5.93159">
        <ele>1868.8000488281</ele>
        <time>2013-09-08T08:30:37.000Z</time>
      </trkpt>
      <trkpt lat="45.17476" lon="5.93171">
        <ele>1869.8000488281</ele>
        <time>2013-09-08T08:30:42.000Z</time>
      </trkpt>
      <trkpt lat="45.17476" lon="5.93184">
        <ele>1871.4000244141</ele>
        <time>2013-09-08T08:30:48.000Z</time>
      </trkpt>
      <trkpt lat="45.17477" lon="5.93192">
        <ele>1872.1999511719</ele>
        <time>2013-09-08T08:30:52.000Z</time>
      </trkpt>
      <trkpt lat="45.17481" lon="5.93202">
        <ele>1872.5999755859</ele>
        <time>2013-09-08T08:30:58.000Z</time>
      </trkpt>
      <trkpt lat="45.1748" lon="5.93213">
        <ele>1874.1999511719</ele>
        <time>2013-09-08T08:31:04.000Z</time>
      </trkpt>
      <trkpt lat="45.1748" lon="5.93221">
        <ele>1875</ele>
        <time>2013-09-08T08:31:07.000Z</time>
      </trkpt>
      <trkpt lat="45.17484" lon="5.93236">
        <ele>1875.8000488281</ele>
        <time>2013-09-08T08:31:14.000Z</time>
      </trkpt>
      <trkpt lat="45.17485" lon="5.93238">
        <ele>1875.8000488281</ele>
        <time>2013-09-08T08:31:15.000Z</time>
      </trkpt>
      <trkpt lat="45.17489" lon="5.93251">
        <ele>1876.1999511719</ele>
        <time>2013-09-08T08:31:21.000Z</time>
      </trkpt>
      <trkpt lat="45.17491" lon="5.93272">
        <ele>1876</ele>
        <time>2013-09-08T08:31:28.000Z</time>
      </trkpt>
      <trkpt lat="45.17491" lon="5.9329">
        <ele>1876.4000244141</ele>
        <time>2013-09-08T08:31:33.000Z</time>
      </trkpt>
      <trkpt lat="45.17492" lon="5.93301">
        <ele>1876.5999755859</ele>
        <time>2013-09-08T08:31:39.000Z</time>
      </trkpt>
      <trkpt lat="45.17493" lon="5.93305">
        <ele>1876.1999511719</ele>
        <time>2013-09-08T08:31:42.000Z</time>
      </trkpt>
      <trkpt lat="45.17493" lon="5.93307">
        <ele>1876.1999511719</ele>
        <time>2013-09-08T08:31:44.000Z</time>
      </trkpt>
      <trkpt lat="45.1749" lon="5.93309">
        <ele>1877.4000244141</ele>
        <time>2013-09-08T08:31:48.000Z</time>
      </trkpt>
      <trkpt lat="45.17489" lon="5.93309">
        <ele>1878</ele>
        <time>2013-09-08T08:31:50.000Z</time>
      </trkpt>
      <trkpt lat="45.17483" lon="5.93305">
        <ele>1880</ele>
        <time>2013-09-08T08:31:57.000Z</time>
      </trkpt>
      <trkpt lat="45.1748" lon="5.93298">
        <ele>1881</ele>
        <time>2013-09-08T08:32:03.000Z</time>
      </trkpt>
      <trkpt lat="45.17476" lon="5.93295">
        <ele>1882.1999511719</ele>
        <time>2013-09-08T08:32:08.000Z</time>
      </trkpt>
      <trkpt lat="45.17471" lon="5.93291">
        <ele>1883.5999755859</ele>
        <time>2013-09-08T08:32:13.000Z</time>
      </trkpt>
      <trkpt lat="45.17469" lon="5.93288">
        <ele>1884.1999511719</ele>
        <time>2013-09-08T08:32:16.000Z</time>
      </trkpt>
      <trkpt lat="45.17467" lon="5.93286">
        <ele>1884.5999755859</ele>
        <time>2013-09-08T08:32:18.000Z</time>
      </trkpt>
      <trkpt lat="45.17462" lon="5.9328">
        <ele>1886</ele>
        <time>2013-09-08T08:32:23.000Z</time>
      </trkpt>
      <trkpt lat="45.17461" lon="5.93281">
        <ele>1886.4000244141</ele>
        <time>2013-09-08T08:32:24.000Z</time>
      </trkpt>
      <trkpt lat="45.17459" lon="5.93282">
        <ele>1887.1999511719</ele>
        <time>2013-09-08T08:32:26.000Z</time>
      </trkpt>
      <trkpt lat="45.17451" lon="5.93276">
        <ele>1889.1999511719</ele>
        <time>2013-09-08T08:32:31.000Z</time>
      </trkpt>
      <trkpt lat="45.17448" lon="5.93273">
        <ele>1890</ele>
        <time>2013-09-08T08:32:33.000Z</time>
      </trkpt>
      <trkpt lat="45.17443" lon="5.93276">
        <ele>1892</ele>
        <time>2013-09-08T08:32:38.000Z</time>
      </trkpt>
      <trkpt lat="45.17442" lon="5.9328">
        <ele>1892.5999755859</ele>
        <time>2013-09-08T08:32:41.000Z</time>
      </trkpt>
      <trkpt lat="45.17439" lon="5.93287">
        <ele>1894.5999755859</ele>
        <time>2013-09-08T08:32:48.000Z</time>
      </trkpt>
      <trkpt lat="45.17434" lon="5.93291">
        <ele>1896.8000488281</ele>
        <time>2013-09-08T08:32:52.000Z</time>
      </trkpt>
      <trkpt lat="45.17427" lon="5.93297">
        <ele>1900</ele>
        <time>2013-09-08T08:32:57.000Z</time>
      </trkpt>
      <trkpt lat="45.17422" lon="5.93299">
        <ele>1902</ele>
        <time>2013-09-08T08:33:00.000Z</time>
      </trkpt>
      <trkpt lat="45.17415" lon="5.93296">
        <ele>1903.8000488281</ele>
        <time>2013-09-08T08:33:06.000Z</time>
      </trkpt>
      <trkpt lat="45.17414" lon="5.93297">
        <ele>1904.1999511719</ele>
        <time>2013-09-08T08:33:08.000Z</time>
      </trkpt>
      <trkpt lat="45.17414" lon="5.93302">
        <ele>1904.8000488281</ele>
        <time>2013-09-08T08:33:13.000Z</time>
      </trkpt>
      <trkpt lat="45.17415" lon="5.93303">
        <ele>1904.8000488281</ele>
        <time>2013-09-08T08:33:14.000Z</time>
      </trkpt>
      <trkpt lat="45.17417" lon="5.93314">
        <ele>1906</ele>
        <time>2013-09-08T08:33:20.000Z</time>
      </trkpt>
      <trkpt lat="45.17418" lon="5.93322">
        <ele>1906.5999755859</ele>
        <time>2013-09-08T08:33:25.000Z</time>
      </trkpt>
      <trkpt lat="45.17421" lon="5.93329">
        <ele>1906.4000244141</ele>
        <time>2013-09-08T08:33:29.000Z</time>
      </trkpt>
      <trkpt lat="45.1742" lon="5.93334">
        <ele>1907.4000244141</ele>
        <time>2013-09-08T08:33:32.000Z</time>
      </trkpt>
      <trkpt lat="45.17418" lon="5.93337">
        <ele>1908.8000488281</ele>
        <time>2013-09-08T08:33:36.000Z</time>
      </trkpt>
      <trkpt lat="45.17416" lon="5.93341">
        <ele>1909.4000244141</ele>
        <time>2013-09-08T08:33:40.000Z</time>
      </trkpt>
      <trkpt lat="45.17413" lon="5.93354">
        <ele>1910.4000244141</ele>
        <time>2013-09-08T08:33:45.000Z</time>
      </trkpt>
      <trkpt lat="45.17414" lon="5.9336">
        <ele>1910.8000488281</ele>
        <time>2013-09-08T08:33:47.000Z</time>
      </trkpt>
      <trkpt lat="45.17409" lon="5.93372">
        <ele>1911.8000488281</ele>
        <time>2013-09-08T08:33:52.000Z</time>
      </trkpt>
      <trkpt lat="45.17407" lon="5.93378">
        <ele>1912.4000244141</ele>
        <time>2013-09-08T08:33:55.000Z</time>
      </trkpt>
      <trkpt lat="45.17407" lon="5.93384">
        <ele>1912.8000488281</ele>
        <time>2013-09-08T08:33:57.000Z</time>
      </trkpt>
      <trkpt lat="45.17401" lon="5.93402">
        <ele>1914.4000244141</ele>
        <time>2013-09-08T08:34:03.000Z</time>
      </trkpt>
      <trkpt lat="45.17401" lon="5.93404">
        <ele>1914.5999755859</ele>
        <time>2013-09-08T08:34:05.000Z</time>
      </trkpt>
      <trkpt lat="45.17405" lon="5.93406">
        <ele>1914.4000244141</ele>
        <time>2013-09-08T08:34:11.000Z</time>
      </trkpt>
      <trkpt lat="45.17407" lon="5.93411">
        <ele>1914.4000244141</ele>
        <time>2013-09-08T08:34:15.000Z</time>
      </trkpt>
      <trkpt lat="45.17403" lon="5.93422">
        <ele>1915.8000488281</ele>
        <time>2013-09-08T08:34:21.000Z</time>
      </trkpt>
      <trkpt lat="45.17399" lon="5.9343">
        <ele>1917</ele>
        <time>2013-09-08T08:34:24.000Z</time>
      </trkpt>
      <trkpt lat="45.17393" lon="5.93443">
        <ele>1919.1999511719</ele>
        <time>2013-09-08T08:34:29.000Z</time>
      </trkpt>
      <trkpt lat="45.17385" lon="5.93456">
        <ele>1922</ele>
        <time>2013-09-08T08:34:35.000Z</time>
      </trkpt>
      <trkpt lat="45.17376" lon="5.93459">
        <ele>1923.5999755859</ele>
        <time>2013-09-08T08:34:39.000Z</time>
      </trkpt>
      <trkpt lat="45.17373" lon="5.93472">
        <ele>1925.8000488281</ele>
        <time>2013-09-08T08:34:44.000Z</time>
      </trkpt>
      <trkpt lat="45.17377" lon="5.93485">
        <ele>1927</ele>
        <time>2013-09-08T08:34:49.000Z</time>
      </trkpt>
      <trkpt lat="45.17374" lon="5.93498">
        <ele>1929.1999511719</ele>
        <time>2013-09-08T08:34:55.000Z</time>
      </trkpt>
      <trkpt lat="45.17376" lon="5.93503">
        <ele>1929.8000488281</ele>
        <time>2013-09-08T08:35:00.000Z</time>
      </trkpt>
      <trkpt lat="45.1738" lon="5.9351">
        <ele>1930.4000244141</ele>
        <time>2013-09-08T08:35:06.000Z</time>
      </trkpt>
      <trkpt lat="45.17383" lon="5.93514">
        <ele>1930.4000244141</ele>
        <time>2013-09-08T08:35:10.000Z</time>
      </trkpt>
      <trkpt lat="45.17384" lon="5.93519">
        <ele>1931</ele>
        <time>2013-09-08T08:35:13.000Z</time>
      </trkpt>
      <trkpt lat="45.17382" lon="5.93529">
        <ele>1933.4000244141</ele>
        <time>2013-09-08T08:35:20.000Z</time>
      </trkpt>
      <trkpt lat="45.17384" lon="5.93536">
        <ele>1934.1999511719</ele>
        <time>2013-09-08T08:35:25.000Z</time>
      </trkpt>
      <trkpt lat="45.17385" lon="5.93544">
        <ele>1935.4000244141</ele>
        <time>2013-09-08T08:35:31.000Z</time>
      </trkpt>
      <trkpt lat="45.17387" lon="5.93549">
        <ele>1936</ele>
        <time>2013-09-08T08:35:36.000Z</time>
      </trkpt>
      <trkpt lat="45.17388" lon="5.93554">
        <ele>1936.5999755859</ele>
        <time>2013-09-08T08:35:40.000Z</time>
      </trkpt>
      <trkpt lat="45.17386" lon="5.93557">
        <ele>1937.4000244141</ele>
        <time>2013-09-08T08:35:43.000Z</time>
      </trkpt>
      <trkpt lat="45.17383" lon="5.93562">
        <ele>1939.1999511719</ele>
        <time>2013-09-08T08:35:49.000Z</time>
      </trkpt>
      <trkpt lat="45.17375" lon="5.93567">
        <ele>1942.4000244141</ele>
        <time>2013-09-08T08:35:54.000Z</time>
      </trkpt>
      <trkpt lat="45.17372" lon="5.93568">
        <ele>1943.4000244141</ele>
        <time>2013-09-08T08:35:56.000Z</time>
      </trkpt>
      <trkpt lat="45.17363" lon="5.93572">
        <ele>1946.4000244141</ele>
        <time>2013-09-08T08:36:01.000Z</time>
      </trkpt>
      <trkpt lat="45.17354" lon="5.93566">
        <ele>1947.4000244141</ele>
        <time>2013-09-08T08:36:07.000Z</time>
      </trkpt>
      <trkpt lat="45.17353" lon="5.93564">
        <ele>1947.5999755859</ele>
        <time>2013-09-08T08:36:08.000Z</time>
      </trkpt>
      <trkpt lat="45.17349" lon="5.93559">
        <ele>1947.4000244141</ele>
        <time>2013-09-08T08:36:12.000Z</time>
      </trkpt>
      <trkpt lat="45.17345" lon="5.93555">
        <ele>1947.5999755859</ele>
        <time>2013-09-08T08:36:16.000Z</time>
      </trkpt>
      <trkpt lat="45.17341" lon="5.93545">
        <ele>1946.1999511719</ele>
        <time>2013-09-08T08:36:22.000Z</time>
      </trkpt>
      <trkpt lat="45.17341" lon="5.93541">
        <ele>1945.4000244141</ele>
        <time>2013-09-08T08:36:24.000Z</time>
      </trkpt>
      <trkpt lat="45.17334" lon="5.9353">
        <ele>1944.4000244141</ele>
        <time>2013-09-08T08:36:29.000Z</time>
      </trkpt>
      <trkpt lat="45.17333" lon="5.93527">
        <ele>1944</ele>
        <time>2013-09-08T08:36:30.000Z</time>
      </trkpt>
      <trkpt lat="45.17329" lon="5.93517">
        <ele>1942.8000488281</ele>
        <time>2013-09-08T08:36:34.000Z</time>
      </trkpt>
      <trkpt lat="45.1732" lon="5.93505">
        <ele>1941.8000488281</ele>
        <time>2013-09-08T08:36:41.000Z</time>
      </trkpt>
      <trkpt lat="45.17315" lon="5.93496">
        <ele>1941.4000244141</ele>
        <time>2013-09-08T08:36:46.000Z</time>
      </trkpt>
      <trkpt lat="45.17313" lon="5.93494">
        <ele>1941.5999755859</ele>
        <time>2013-09-08T08:36:48.000Z</time>
      </trkpt>
      <trkpt lat="45.17304" lon="5.93487">
        <ele>1942.8000488281</ele>
        <time>2013-09-08T08:36:54.000Z</time>
      </trkpt>
      <trkpt lat="45.173" lon="5.93484">
        <ele>1943.4000244141</ele>
        <time>2013-09-08T08:36:57.000Z</time>
      </trkpt>
      <trkpt lat="45.17298" lon="5.93478">
        <ele>1943.1999511719</ele>
        <time>2013-09-08T08:37:00.000Z</time>
      </trkpt>
      <trkpt lat="45.17294" lon="5.93473">
        <ele>1943.8000488281</ele>
        <time>2013-09-08T08:37:03.000Z</time>
      </trkpt>
      <trkpt lat="45.17285" lon="5.93463">
        <ele>1945.4000244141</ele>
        <time>2013-09-08T08:37:09.000Z</time>
      </trkpt>
      <trkpt lat="45.1728" lon="5.93456">
        <ele>1945.8000488281</ele>
        <time>2013-09-08T08:37:13.000Z</time>
      </trkpt>
      <trkpt lat="45.17272" lon="5.93444">
        <ele>1947.5999755859</ele>
        <time>2013-09-08T08:37:19.000Z</time>
      </trkpt>
      <trkpt lat="45.17263" lon="5.93432">
        <ele>1949.5999755859</ele>
        <time>2013-09-08T08:37:24.000Z</time>
      </trkpt>
      <trkpt lat="45.17256" lon="5.93423">
        <ele>1951.8000488281</ele>
        <time>2013-09-08T08:37:28.000Z</time>
      </trkpt>
      <trkpt lat="45.17253" lon="5.93419">
        <ele>1953</ele>
        <time>2013-09-08T08:37:31.000Z</time>
      </trkpt>
      <trkpt lat="45.1725" lon="5.93422">
        <ele>1954.1999511719</ele>
        <time>2013-09-08T08:37:36.000Z</time>
      </trkpt>
      <trkpt lat="45.1725" lon="5.93427">
        <ele>1954.1999511719</ele>
        <time>2013-09-08T08:37:41.000Z</time>
      </trkpt>
      <trkpt lat="45.17249" lon="5.9343">
        <ele>1954.8000488281</ele>
        <time>2013-09-08T08:37:47.000Z</time>
      </trkpt>
      <trkpt lat="45.17248" lon="5.93434">
        <ele>1955</ele>
        <time>2013-09-08T08:37:52.000Z</time>
      </trkpt>
      <trkpt lat="45.17249" lon="5.93435">
        <ele>1954.8000488281</ele>
        <time>2013-09-08T08:37:59.000Z</time>
      </trkpt>
      <trkpt lat="45.17251" lon="5.9344">
        <ele>1954.5999755859</ele>
        <time>2013-09-08T08:38:06.000Z</time>
      </trkpt>
      <trkpt lat="45.1725" lon="5.93441">
        <ele>1954.8000488281</ele>
        <time>2013-09-08T08:38:07.000Z</time>
      </trkpt>
      <trkpt lat="45.17247" lon="5.93441">
        <ele>1955.5999755859</ele>
        <time>2013-09-08T08:38:09.000Z</time>
      </trkpt>
      <trkpt lat="45.17243" lon="5.93438">
        <ele>1956.8000488281</ele>
        <time>2013-09-08T08:38:13.000Z</time>
      </trkpt>
      <trkpt lat="45.17237" lon="5.93436">
        <ele>1958.1999511719</ele>
        <time>2013-09-08T08:38:19.000Z</time>
      </trkpt>
      <trkpt lat="45.17232" lon="5.93437">
        <ele>1960</ele>
        <time>2013-09-08T08:38:25.000Z</time>
      </trkpt>
      <trkpt lat="45.17227" lon="5.93435">
        <ele>1961.1999511719</ele>
        <time>2013-09-08T08:38:29.000Z</time>
      </trkpt>
      <trkpt lat="45.17222" lon="5.93444">
        <ele>1962.8000488281</ele>
        <time>2013-09-08T08:38:36.000Z</time>
      </trkpt>
      <trkpt lat="45.17215" lon="5.93456">
        <ele>1964.1999511719</ele>
        <time>2013-09-08T08:38:41.000Z</time>
      </trkpt>
      <trkpt lat="45.17214" lon="5.93465">
        <ele>1964.1999511719</ele>
        <time>2013-09-08T08:38:44.000Z</time>
      </trkpt>
      <trkpt lat="45.17208" lon="5.93471">
        <ele>1965.4000244141</ele>
        <time>2013-09-08T08:38:52.000Z</time>
      </trkpt>
      <trkpt lat="45.17204" lon="5.93467">
        <ele>1966.5999755859</ele>
        <time>2013-09-08T08:38:57.000Z</time>
      </trkpt>
      <trkpt lat="45.17198" lon="5.93464">
        <ele>1968.4000244141</ele>
        <time>2013-09-08T08:39:03.000Z</time>
      </trkpt>
      <trkpt lat="45.1719" lon="5.93471">
        <ele>1969.5999755859</ele>
        <time>2013-09-08T08:41:26.000Z</time>
      </trkpt>
      <trkpt lat="45.17189" lon="5.93472">
        <ele>1969.8000488281</ele>
        <time>2013-09-08T08:42:06.000Z</time>
      </trkpt>
      <trkpt lat="45.17189" lon="5.93472">
        <ele>1969.8000488281</ele>
        <time>2013-09-08T08:42:06.000Z</time>
      </trkpt>
      <trkpt lat="45.17189" lon="5.93467">
        <ele>1970.1999511719</ele>
        <time>2013-09-08T08:42:11.000Z</time>
      </trkpt>
      <trkpt lat="45.17195" lon="5.93464">
        <ele>1969</ele>
        <time>2013-09-08T08:42:16.000Z</time>
      </trkpt>
      <trkpt lat="45.17205" lon="5.93467">
        <ele>1966.5999755859</ele>
        <time>2013-09-08T08:42:20.000Z</time>
      </trkpt>
      <trkpt lat="45.17207" lon="5.93469">
        <ele>1965.8000488281</ele>
        <time>2013-09-08T08:42:22.000Z</time>
      </trkpt>
      <trkpt lat="45.17213" lon="5.93464">
        <ele>1964.5999755859</ele>
        <time>2013-09-08T08:42:26.000Z</time>
      </trkpt>
      <trkpt lat="45.17214" lon="5.9346">
        <ele>1964.4000244141</ele>
        <time>2013-09-08T08:42:27.000Z</time>
      </trkpt>
      <trkpt lat="45.17222" lon="5.93443">
        <ele>1962.5999755859</ele>
        <time>2013-09-08T08:42:32.000Z</time>
      </trkpt>
      <trkpt lat="45.17231" lon="5.93449">
        <ele>1960.1999511719</ele>
        <time>2013-09-08T08:42:37.000Z</time>
      </trkpt>
      <trkpt lat="45.17236" lon="5.93456">
        <ele>1959</ele>
        <time>2013-09-08T08:42:40.000Z</time>
      </trkpt>
      <trkpt lat="45.17242" lon="5.93463">
        <ele>1957.4000244141</ele>
        <time>2013-09-08T08:42:45.000Z</time>
      </trkpt>
      <trkpt lat="45.17249" lon="5.93471">
        <ele>1956</ele>
        <time>2013-09-08T08:42:52.000Z</time>
      </trkpt>
      <trkpt lat="45.17258" lon="5.9348">
        <ele>1954.1999511719</ele>
        <time>2013-09-08T08:42:57.000Z</time>
      </trkpt>
      <trkpt lat="45.17263" lon="5.93486">
        <ele>1953.1999511719</ele>
        <time>2013-09-08T08:43:01.000Z</time>
      </trkpt>
      <trkpt lat="45.17271" lon="5.93493">
        <ele>1951.4000244141</ele>
        <time>2013-09-08T08:43:06.000Z</time>
      </trkpt>
      <trkpt lat="45.17275" lon="5.93491">
        <ele>1950.5999755859</ele>
        <time>2013-09-08T08:43:08.000Z</time>
      </trkpt>
      <trkpt lat="45.17289" lon="5.93487">
        <ele>1946.5999755859</ele>
        <time>2013-09-08T08:43:13.000Z</time>
      </trkpt>
      <trkpt lat="45.17301" lon="5.9349">
        <ele>1944.1999511719</ele>
        <time>2013-09-08T08:43:17.000Z</time>
      </trkpt>
      <trkpt lat="45.17307" lon="5.93501">
        <ele>1944</ele>
        <time>2013-09-08T08:43:21.000Z</time>
      </trkpt>
      <trkpt lat="45.17306" lon="5.93508">
        <ele>1945.5999755859</ele>
        <time>2013-09-08T08:43:25.000Z</time>
      </trkpt>
      <trkpt lat="45.17313" lon="5.93513">
        <ele>1945.4000244141</ele>
        <time>2013-09-08T08:43:30.000Z</time>
      </trkpt>
      <trkpt lat="45.17316" lon="5.93515">
        <ele>1945</ele>
        <time>2013-09-08T08:43:32.000Z</time>
      </trkpt>
      <trkpt lat="45.17319" lon="5.93516">
        <ele>1944.5999755859</ele>
        <time>2013-09-08T08:43:37.000Z</time>
      </trkpt>
      <trkpt lat="45.17327" lon="5.93516">
        <ele>1943</ele>
        <time>2013-09-08T08:43:42.000Z</time>
      </trkpt>
      <trkpt lat="45.17329" lon="5.93519">
        <ele>1943.1999511719</ele>
        <time>2013-09-08T08:43:43.000Z</time>
      </trkpt>
      <trkpt lat="45.1734" lon="5.93536">
        <ele>1944.5999755859</ele>
        <time>2013-09-08T08:43:48.000Z</time>
      </trkpt>
      <trkpt lat="45.17345" lon="5.93547">
        <ele>1945.8000488281</ele>
        <time>2013-09-08T08:43:52.000Z</time>
      </trkpt>
      <trkpt lat="45.17351" lon="5.93555">
        <ele>1946</ele>
        <time>2013-09-08T08:43:57.000Z</time>
      </trkpt>
      <trkpt lat="45.17352" lon="5.93559">
        <ele>1946.5999755859</ele>
        <time>2013-09-08T08:43:59.000Z</time>
      </trkpt>
      <trkpt lat="45.17354" lon="5.93563">
        <ele>1947</ele>
        <time>2013-09-08T08:44:01.000Z</time>
      </trkpt>
      <trkpt lat="45.17363" lon="5.93569">
        <ele>1945.8000488281</ele>
        <time>2013-09-08T08:44:06.000Z</time>
      </trkpt>
      <trkpt lat="45.17373" lon="5.93566">
        <ele>1942.5999755859</ele>
        <time>2013-09-08T08:44:11.000Z</time>
      </trkpt>
      <trkpt lat="45.17374" lon="5.93565">
        <ele>1942.1999511719</ele>
        <time>2013-09-08T08:44:12.000Z</time>
      </trkpt>
      <trkpt lat="45.17387" lon="5.93557">
        <ele>1937.1999511719</ele>
        <time>2013-09-08T08:44:18.000Z</time>
      </trkpt>
      <trkpt lat="45.1739" lon="5.93551">
        <ele>1935.5999755859</ele>
        <time>2013-09-08T08:44:20.000Z</time>
      </trkpt>
      <trkpt lat="45.17386" lon="5.93543">
        <ele>1935</ele>
        <time>2013-09-08T08:44:24.000Z</time>
      </trkpt>
      <trkpt lat="45.17385" lon="5.93535">
        <ele>1933.8000488281</ele>
        <time>2013-09-08T08:44:28.000Z</time>
      </trkpt>
      <trkpt lat="45.17383" lon="5.93529">
        <ele>1933.1999511719</ele>
        <time>2013-09-08T08:44:30.000Z</time>
      </trkpt>
      <trkpt lat="45.17384" lon="5.93516">
        <ele>1930.4000244141</ele>
        <time>2013-09-08T08:44:35.000Z</time>
      </trkpt>
      <trkpt lat="45.1738" lon="5.93499">
        <ele>1928.1999511719</ele>
        <time>2013-09-08T08:44:41.000Z</time>
      </trkpt>
      <trkpt lat="45.17381" lon="5.93496">
        <ele>1927.5999755859</ele>
        <time>2013-09-08T08:44:42.000Z</time>
      </trkpt>
      <trkpt lat="45.17381" lon="5.93483">
        <ele>1926</ele>
        <time>2013-09-08T08:44:47.000Z</time>
      </trkpt>
      <trkpt lat="45.17378" lon="5.9346">
        <ele>1923.4000244141</ele>
        <time>2013-09-08T08:44:52.000Z</time>
      </trkpt>
      <trkpt lat="45.17378" lon="5.93456">
        <ele>1923</ele>
        <time>2013-09-08T08:44:53.000Z</time>
      </trkpt>
      <trkpt lat="45.17387" lon="5.93444">
        <ele>1920.1999511719</ele>
        <time>2013-09-08T08:44:58.000Z</time>
      </trkpt>
      <trkpt lat="45.17397" lon="5.93434">
        <ele>1917.8000488281</ele>
        <time>2013-09-08T08:45:03.000Z</time>
      </trkpt>
      <trkpt lat="45.17405" lon="5.93418">
        <ele>1915.1999511719</ele>
        <time>2013-09-08T08:45:08.000Z</time>
      </trkpt>
      <trkpt lat="45.17407" lon="5.93401">
        <ele>1913.8000488281</ele>
        <time>2013-09-08T08:45:13.000Z</time>
      </trkpt>
      <trkpt lat="45.17405" lon="5.93397">
        <ele>1913.8000488281</ele>
        <time>2013-09-08T08:45:17.000Z</time>
      </trkpt>
      <trkpt lat="45.17404" lon="5.93398">
        <ele>1914</ele>
        <time>2013-09-08T08:45:18.000Z</time>
      </trkpt>
      <trkpt lat="45.17403" lon="5.93388">
        <ele>1913.4000244141</ele>
        <time>2013-09-08T08:45:23.000Z</time>
      </trkpt>
      <trkpt lat="45.17405" lon="5.93381">
        <ele>1912.8000488281</ele>
        <time>2013-09-08T08:45:25.000Z</time>
      </trkpt>
      <trkpt lat="45.17408" lon="5.93367">
        <ele>1911.5999755859</ele>
        <time>2013-09-08T08:45:29.000Z</time>
      </trkpt>
      <trkpt lat="45.17415" lon="5.93356">
        <ele>1910.4000244141</ele>
        <time>2013-09-08T08:45:33.000Z</time>
      </trkpt>
      <trkpt lat="45.17415" lon="5.93341">
        <ele>1909.5999755859</ele>
        <time>2013-09-08T08:45:37.000Z</time>
      </trkpt>
      <trkpt lat="45.17416" lon="5.93338">
        <ele>1909.1999511719</ele>
        <time>2013-09-08T08:45:38.000Z</time>
      </trkpt>
      <trkpt lat="45.17418" lon="5.93333">
        <ele>1908.1999511719</ele>
        <time>2013-09-08T08:45:42.000Z</time>
      </trkpt>
      <trkpt lat="45.1742" lon="5.93324">
        <ele>1906.1999511719</ele>
        <time>2013-09-08T08:45:47.000Z</time>
      </trkpt>
      <trkpt lat="45.17416" lon="5.93312">
        <ele>1905.8000488281</ele>
        <time>2013-09-08T08:45:52.000Z</time>
      </trkpt>
      <trkpt lat="45.17416" lon="5.93305">
        <ele>1905</ele>
        <time>2013-09-08T08:45:56.000Z</time>
      </trkpt>
      <trkpt lat="45.17419" lon="5.93303">
        <ele>1903.5999755859</ele>
        <time>2013-09-08T08:45:59.000Z</time>
      </trkpt>
      <trkpt lat="45.1742" lon="5.93302">
        <ele>1903.1999511719</ele>
        <time>2013-09-08T08:46:00.000Z</time>
      </trkpt>
      <trkpt lat="45.17426" lon="5.93294">
        <ele>1899.8000488281</ele>
        <time>2013-09-08T08:46:06.000Z</time>
      </trkpt>
      <trkpt lat="45.17433" lon="5.93288">
        <ele>1896.8000488281</ele>
        <time>2013-09-08T08:46:10.000Z</time>
      </trkpt>
      <trkpt lat="45.17437" lon="5.93282">
        <ele>1894.8000488281</ele>
        <time>2013-09-08T08:46:13.000Z</time>
      </trkpt>
      <trkpt lat="45.17439" lon="5.93277">
        <ele>1893.4000244141</ele>
        <time>2013-09-08T08:46:16.000Z</time>
      </trkpt>
      <trkpt lat="45.17444" lon="5.93266">
        <ele>1890.5999755859</ele>
        <time>2013-09-08T08:46:22.000Z</time>
      </trkpt>
      <trkpt lat="45.17448" lon="5.93272">
        <ele>1889.8000488281</ele>
        <time>2013-09-08T08:46:25.000Z</time>
      </trkpt>
      <trkpt lat="45.17451" lon="5.93279">
        <ele>1889.5999755859</ele>
        <time>2013-09-08T08:46:27.000Z</time>
      </trkpt>
      <trkpt lat="45.17456" lon="5.93282">
        <ele>1888.4000244141</ele>
        <time>2013-09-08T08:46:30.000Z</time>
      </trkpt>
      <trkpt lat="45.17459" lon="5.93279">
        <ele>1886.8000488281</ele>
        <time>2013-09-08T08:46:34.000Z</time>
      </trkpt>
      <trkpt lat="45.17463" lon="5.93285">
        <ele>1886</ele>
        <time>2013-09-08T08:46:38.000Z</time>
      </trkpt>
      <trkpt lat="45.17469" lon="5.93293">
        <ele>1884.5999755859</ele>
        <time>2013-09-08T08:46:43.000Z</time>
      </trkpt>
      <trkpt lat="45.17471" lon="5.93296">
        <ele>1883.8000488281</ele>
        <time>2013-09-08T08:46:45.000Z</time>
      </trkpt>
      <trkpt lat="45.17479" lon="5.93302">
        <ele>1881.4000244141</ele>
        <time>2013-09-08T08:46:49.000Z</time>
      </trkpt>
      <trkpt lat="45.17485" lon="5.93309">
        <ele>1879.5999755859</ele>
        <time>2013-09-08T08:46:53.000Z</time>
      </trkpt>
      <trkpt lat="45.17489" lon="5.93301">
        <ele>1877.5999755859</ele>
        <time>2013-09-08T08:46:57.000Z</time>
      </trkpt>
      <trkpt lat="45.17488" lon="5.93293">
        <ele>1877.8000488281</ele>
        <time>2013-09-08T08:46:59.000Z</time>
      </trkpt>
      <trkpt lat="45.17483" lon="5.93267">
        <ele>1878.4000244141</ele>
        <time>2013-09-08T08:47:04.000Z</time>
      </trkpt>
      <trkpt lat="45.17483" lon="5.9325">
        <ele>1877.8000488281</ele>
        <time>2013-09-08T08:47:08.000Z</time>
      </trkpt>
      <trkpt lat="45.1748" lon="5.93237">
        <ele>1877</ele>
        <time>2013-09-08T08:47:12.000Z</time>
      </trkpt>
      <trkpt lat="45.17474" lon="5.93219">
        <ele>1876.4000244141</ele>
        <time>2013-09-08T08:47:19.000Z</time>
      </trkpt>
      <trkpt lat="45.17474" lon="5.93205">
        <ele>1874.8000488281</ele>
        <time>2013-09-08T08:47:24.000Z</time>
      </trkpt>
      <trkpt lat="45.17472" lon="5.93192">
        <ele>1873.5999755859</ele>
        <time>2013-09-08T08:47:29.000Z</time>
      </trkpt>
      <trkpt lat="45.17469" lon="5.93177">
        <ele>1872.4000244141</ele>
        <time>2013-09-08T08:47:34.000Z</time>
      </trkpt>
      <trkpt lat="45.17467" lon="5.93163">
        <ele>1870.5999755859</ele>
        <time>2013-09-08T08:47:38.000Z</time>
      </trkpt>
      <trkpt lat="45.1746" lon="5.9315">
        <ele>1870</ele>
        <time>2013-09-08T08:47:42.000Z</time>
      </trkpt>
      <trkpt lat="45.17459" lon="5.93149">
        <ele>1870</ele>
        <time>2013-09-08T08:47:43.000Z</time>
      </trkpt>
      <trkpt lat="45.17458" lon="5.9315">
        <ele>1870.5999755859</ele>
        <time>2013-09-08T08:47:46.000Z</time>
      </trkpt>
      <trkpt lat="45.17454" lon="5.93147">
        <ele>1871</ele>
        <time>2013-09-08T08:47:50.000Z</time>
      </trkpt>
      <trkpt lat="45.17453" lon="5.93145">
        <ele>1871</ele>
        <time>2013-09-08T08:47:52.000Z</time>
      </trkpt>
      <trkpt lat="45.17449" lon="5.93135">
        <ele>1870.1999511719</ele>
        <time>2013-09-08T08:47:57.000Z</time>
      </trkpt>
      <trkpt lat="45.17447" lon="5.93133">
        <ele>1870.1999511719</ele>
        <time>2013-09-08T08:47:58.000Z</time>
      </trkpt>
      <trkpt lat="45.17443" lon="5.93125">
        <ele>1870.1999511719</ele>
        <time>2013-09-08T08:48:04.000Z</time>
      </trkpt>
      <trkpt lat="45.17442" lon="5.93113">
        <ele>1868</ele>
        <time>2013-09-08T08:48:10.000Z</time>
      </trkpt>
      <trkpt lat="45.17442" lon="5.93111">
        <ele>1867.8000488281</ele>
        <time>2013-09-08T08:48:11.000Z</time>
      </trkpt>
      <trkpt lat="45.17441" lon="5.93102">
        <ele>1866.4000244141</ele>
        <time>2013-09-08T08:48:17.000Z</time>
      </trkpt>
      <trkpt lat="45.1744" lon="5.93099">
        <ele>1866.1999511719</ele>
        <time>2013-09-08T08:48:19.000Z</time>
      </trkpt>
      <trkpt lat="45.17439" lon="5.93086">
        <ele>1864</ele>
        <time>2013-09-08T08:48:24.000Z</time>
      </trkpt>
      <trkpt lat="45.17438" lon="5.93072">
        <ele>1860</ele>
        <time>2013-09-08T08:48:29.000Z</time>
      </trkpt>
      <trkpt lat="45.17439" lon="5.93068">
        <ele>1858.8000488281</ele>
        <time>2013-09-08T08:48:30.000Z</time>
      </trkpt>
      <trkpt lat="45.1744" lon="5.9306">
        <ele>1855.8000488281</ele>
        <time>2013-09-08T08:48:32.000Z</time>
      </trkpt>
      <trkpt lat="45.17433" lon="5.93038">
        <ele>1851.1999511719</ele>
        <time>2013-09-08T08:48:37.000Z</time>
      </trkpt>
      <trkpt lat="45.17431" lon="5.93029">
        <ele>1849.4000244141</ele>
        <time>2013-09-08T08:48:39.000Z</time>
      </trkpt>
      <trkpt lat="45.17426" lon="5.93012">
        <ele>1846</ele>
        <time>2013-09-08T08:48:43.000Z</time>
      </trkpt>
      <trkpt lat="45.17424" lon="5.93002">
        <ele>1843.5999755859</ele>
        <time>2013-09-08T08:48:47.000Z</time>
      </trkpt>
      <trkpt lat="45.17421" lon="5.93">
        <ele>1844.1999511719</ele>
        <time>2013-09-08T08:48:51.000Z</time>
      </trkpt>
      <trkpt lat="45.17419" lon="5.92997">
        <ele>1844</ele>
        <time>2013-09-08T08:48:53.000Z</time>
      </trkpt>
      <trkpt lat="45.17418" lon="5.92993">
        <ele>1843</ele>
        <time>2013-09-08T08:48:55.000Z</time>
      </trkpt>
      <trkpt lat="45.17414" lon="5.92984">
        <ele>1841</ele>
        <time>2013-09-08T08:49:00.000Z</time>
      </trkpt>
      <trkpt lat="45.1741" lon="5.92977">
        <ele>1839.5999755859</ele>
        <time>2013-09-08T08:49:03.000Z</time>
      </trkpt>
      <trkpt lat="45.17408" lon="5.9297">
        <ele>1837.4000244141</ele>
        <time>2013-09-08T08:49:08.000Z</time>
      </trkpt>
      <trkpt lat="45.17407" lon="5.92963">
        <ele>1835.4000244141</ele>
        <time>2013-09-08T08:49:13.000Z</time>
      </trkpt>
      <trkpt lat="45.17404" lon="5.92954">
        <ele>1832.8000488281</ele>
        <time>2013-09-08T08:49:18.000Z</time>
      </trkpt>
      <trkpt lat="45.17401" lon="5.92951">
        <ele>1832.5999755859</ele>
        <time>2013-09-08T08:49:22.000Z</time>
      </trkpt>
      <trkpt lat="45.17396" lon="5.92943">
        <ele>1830.8000488281</ele>
        <time>2013-09-08T08:49:28.000Z</time>
      </trkpt>
      <trkpt lat="45.17395" lon="5.92938">
        <ele>1829.4000244141</ele>
        <time>2013-09-08T08:49:30.000Z</time>
      </trkpt>
      <trkpt lat="45.17388" lon="5.92926">
        <ele>1827</ele>
        <time>2013-09-08T08:49:36.000Z</time>
      </trkpt>
      <trkpt lat="45.17389" lon="5.92917">
        <ele>1823.8000488281</ele>
        <time>2013-09-08T08:49:39.000Z</time>
      </trkpt>
      <trkpt lat="45.17384" lon="5.92908">
        <ele>1822</ele>
        <time>2013-09-08T08:49:43.000Z</time>
      </trkpt>
      <trkpt lat="45.17382" lon="5.92898">
        <ele>1819.1999511719</ele>
        <time>2013-09-08T08:49:47.000Z</time>
      </trkpt>
      <trkpt lat="45.17377" lon="5.92888">
        <ele>1817</ele>
        <time>2013-09-08T08:49:51.000Z</time>
      </trkpt>
      <trkpt lat="45.17376" lon="5.92883">
        <ele>1815.5999755859</ele>
        <time>2013-09-08T08:49:53.000Z</time>
      </trkpt>
      <trkpt lat="45.17373" lon="5.92872">
        <ele>1812.8000488281</ele>
        <time>2013-09-08T08:49:58.000Z</time>
      </trkpt>
      <trkpt lat="45.17371" lon="5.92866">
        <ele>1811.4000244141</ele>
        <time>2013-09-08T08:50:01.000Z</time>
      </trkpt>
      <trkpt lat="45.17366" lon="5.92855">
        <ele>1808.8000488281</ele>
        <time>2013-09-08T08:50:07.000Z</time>
      </trkpt>
      <trkpt lat="45.17363" lon="5.92855">
        <ele>1809.1999511719</ele>
        <time>2013-09-08T08:50:08.000Z</time>
      </trkpt>
      <trkpt lat="45.1735" lon="5.92847">
        <ele>1808.8000488281</ele>
        <time>2013-09-08T08:50:14.000Z</time>
      </trkpt>
      <trkpt lat="45.17338" lon="5.9284">
        <ele>1808.4000244141</ele>
        <time>2013-09-08T08:50:18.000Z</time>
      </trkpt>
      <trkpt lat="45.17329" lon="5.92836">
        <ele>1809.4000244141</ele>
        <time>2013-09-08T08:50:22.000Z</time>
      </trkpt>
      <trkpt lat="45.1733" lon="5.92833">
        <ele>1808.1999511719</ele>
        <time>2013-09-08T08:50:25.000Z</time>
      </trkpt>
      <trkpt lat="45.1733" lon="5.92828">
        <ele>1806.8000488281</ele>
        <time>2013-09-08T08:50:28.000Z</time>
      </trkpt>
      <trkpt lat="45.17327" lon="5.92821">
        <ele>1806.1999511719</ele>
        <time>2013-09-08T08:50:33.000Z</time>
      </trkpt>
      <trkpt lat="45.17325" lon="5.92817">
        <ele>1806</ele>
        <time>2013-09-08T08:50:35.000Z</time>
      </trkpt>
      <trkpt lat="45.17321" lon="5.92804">
        <ele>1804.5999755859</ele>
        <time>2013-09-08T08:50:41.000Z</time>
      </trkpt>
      <trkpt lat="45.17316" lon="5.92793">
        <ele>1803.5999755859</ele>
        <time>2013-09-08T08:50:44.000Z</time>
      </trkpt>
      <trkpt lat="45.17316" lon="5.92785">
        <ele>1802</ele>
        <time>2013-09-08T08:50:46.000Z</time>
      </trkpt>
      <trkpt lat="45.17316" lon="5.92766">
        <ele>1797.4000244141</ele>
        <time>2013-09-08T08:50:50.000Z</time>
      </trkpt>
      <trkpt lat="45.17318" lon="5.92755">
        <ele>1794.1999511719</ele>
        <time>2013-09-08T08:50:55.000Z</time>
      </trkpt>
      <trkpt lat="45.17318" lon="5.92746">
        <ele>1791.5999755859</ele>
        <time>2013-09-08T08:50:59.000Z</time>
      </trkpt>
      <trkpt lat="45.17314" lon="5.92729">
        <ele>1789</ele>
        <time>2013-09-08T08:51:03.000Z</time>
      </trkpt>
      <trkpt lat="45.17316" lon="5.92719">
        <ele>1786</ele>
        <time>2013-09-08T08:51:06.000Z</time>
      </trkpt>
      <trkpt lat="45.1732" lon="5.92713">
        <ele>1783.1999511719</ele>
        <time>2013-09-08T08:51:09.000Z</time>
      </trkpt>
      <trkpt lat="45.1733" lon="5.92703">
        <ele>1778</ele>
        <time>2013-09-08T08:51:14.000Z</time>
      </trkpt>
      <trkpt lat="45.17341" lon="5.92689">
        <ele>1772.4000244141</ele>
        <time>2013-09-08T08:51:20.000Z</time>
      </trkpt>
      <trkpt lat="45.17349" lon="5.9268">
        <ele>1768.1999511719</ele>
        <time>2013-09-08T08:51:25.000Z</time>
      </trkpt>
      <trkpt lat="45.17356" lon="5.92674">
        <ele>1765.1999511719</ele>
        <time>2013-09-08T08:51:30.000Z</time>
      </trkpt>
      <trkpt lat="45.17357" lon="5.92672">
        <ele>1764.5999755859</ele>
        <time>2013-09-08T08:51:31.000Z</time>
      </trkpt>
      <trkpt lat="45.17362" lon="5.92664">
        <ele>1761.8000488281</ele>
        <time>2013-09-08T08:51:34.000Z</time>
      </trkpt>
      <trkpt lat="45.17368" lon="5.92659">
        <ele>1759.1999511719</ele>
        <time>2013-09-08T08:51:37.000Z</time>
      </trkpt>
      <trkpt lat="45.17375" lon="5.9265">
        <ele>1755.5999755859</ele>
        <time>2013-09-08T08:51:43.000Z</time>
      </trkpt>
      <trkpt lat="45.17365" lon="5.92654">
        <ele>1758.8000488281</ele>
        <time>2013-09-08T08:51:46.000Z</time>
      </trkpt>
      <trkpt lat="45.17352" lon="5.92658">
        <ele>1763</ele>
        <time>2013-09-08T08:51:50.000Z</time>
      </trkpt>
      <trkpt lat="45.17348" lon="5.9266">
        <ele>1764.4000244141</ele>
        <time>2013-09-08T08:51:51.000Z</time>
      </trkpt>
      <trkpt lat="45.17332" lon="5.92668">
        <ele>1770.1999511719</ele>
        <time>2013-09-08T08:51:55.000Z</time>
      </trkpt>
      <trkpt lat="45.17322" lon="5.92666">
        <ele>1772</ele>
        <time>2013-09-08T08:52:00.000Z</time>
      </trkpt>
      <trkpt lat="45.17324" lon="5.9266">
        <ele>1770</ele>
        <time>2013-09-08T08:52:02.000Z</time>
      </trkpt>
      <trkpt lat="45.17328" lon="5.92655">
        <ele>1767.8000488281</ele>
        <time>2013-09-08T08:52:04.000Z</time>
      </trkpt>
      <trkpt lat="45.17343" lon="5.92635">
        <ele>1759.1999511719</ele>
        <time>2013-09-08T08:52:10.000Z</time>
      </trkpt>
      <trkpt lat="45.17354" lon="5.92623">
        <ele>1754.4000244141</ele>
        <time>2013-09-08T08:52:14.000Z</time>
      </trkpt>
      <trkpt lat="45.17366" lon="5.92607">
        <ele>1748.8000488281</ele>
        <time>2013-09-08T08:52:19.000Z</time>
      </trkpt>
      <trkpt lat="45.17379" lon="5.9259">
        <ele>1743.8000488281</ele>
        <time>2013-09-08T08:52:24.000Z</time>
      </trkpt>
      <trkpt lat="45.17393" lon="5.92575">
        <ele>1740</ele>
        <time>2013-09-08T08:52:29.000Z</time>
      </trkpt>
      <trkpt lat="45.17402" lon="5.92563">
        <ele>1737.1999511719</ele>
        <time>2013-09-08T08:52:33.000Z</time>
      </trkpt>
      <trkpt lat="45.17409" lon="5.92557">
        <ele>1734.8000488281</ele>
        <time>2013-09-08T08:52:38.000Z</time>
      </trkpt>
      <trkpt lat="45.17426" lon="5.92548">
        <ele>1728.5999755859</ele>
        <time>2013-09-08T08:52:43.000Z</time>
      </trkpt>
      <trkpt lat="45.17429" lon="5.92547">
        <ele>1727.4000244141</ele>
        <time>2013-09-08T08:52:44.000Z</time>
      </trkpt>
      <trkpt lat="45.1744" lon="5.92541">
        <ele>1722.4000244141</ele>
        <time>2013-09-08T08:52:48.000Z</time>
      </trkpt>
      <trkpt lat="45.17457" lon="5.92534">
        <ele>1715.8000488281</ele>
        <time>2013-09-08T08:52:53.000Z</time>
      </trkpt>
      <trkpt lat="45.17475" lon="5.9253">
        <ele>1709.5999755859</ele>
        <time>2013-09-08T08:52:58.000Z</time>
      </trkpt>
      <trkpt lat="45.17488" lon="5.92531">
        <ele>1705.4000244141</ele>
        <time>2013-09-08T08:53:02.000Z</time>
      </trkpt>
      <trkpt lat="45.17493" lon="5.92536">
        <ele>1703.8000488281</ele>
        <time>2013-09-08T08:53:05.000Z</time>
      </trkpt>
      <trkpt lat="45.17496" lon="5.92535">
        <ele>1702.5999755859</ele>
        <time>2013-09-08T08:53:10.000Z</time>
      </trkpt>
      <trkpt lat="45.17494" lon="5.92523">
        <ele>1703</ele>
        <time>2013-09-08T08:54:59.000Z</time>
      </trkpt>
      <trkpt lat="45.17486" lon="5.92516">
        <ele>1705.1999511719</ele>
        <time>2013-09-08T08:55:03.000Z</time>
      </trkpt>
      <trkpt lat="45.17472" lon="5.92501">
        <ele>1708.4000244141</ele>
        <time>2013-09-08T08:55:09.000Z</time>
      </trkpt>
      <trkpt lat="45.17465" lon="5.92492">
        <ele>1710.1999511719</ele>
        <time>2013-09-08T08:55:12.000Z</time>
      </trkpt>
      <trkpt lat="45.17459" lon="5.92466">
        <ele>1712</ele>
        <time>2013-09-08T08:55:17.000Z</time>
      </trkpt>
      <trkpt lat="45.17461" lon="5.92446">
        <ele>1711.8000488281</ele>
        <time>2013-09-08T08:55:21.000Z</time>
      </trkpt>
      <trkpt lat="45.17471" lon="5.92436">
        <ele>1709</ele>
        <time>2013-09-08T08:55:25.000Z</time>
      </trkpt>
      <trkpt lat="45.17479" lon="5.92422">
        <ele>1707</ele>
        <time>2013-09-08T08:55:30.000Z</time>
      </trkpt>
      <trkpt lat="45.17486" lon="5.92408">
        <ele>1706.1999511719</ele>
        <time>2013-09-08T08:55:34.000Z</time>
      </trkpt>
      <trkpt lat="45.17494" lon="5.92392">
        <ele>1705.8000488281</ele>
        <time>2013-09-08T08:55:39.000Z</time>
      </trkpt>
      <trkpt lat="45.17506" lon="5.92386">
        <ele>1702.5999755859</ele>
        <time>2013-09-08T08:55:44.000Z</time>
      </trkpt>
      <trkpt lat="45.17519" lon="5.92379">
        <ele>1698.5999755859</ele>
        <time>2013-09-08T08:55:48.000Z</time>
      </trkpt>
      <trkpt lat="45.17535" lon="5.92374">
        <ele>1693.1999511719</ele>
        <time>2013-09-08T08:55:52.000Z</time>
      </trkpt>
      <trkpt lat="45.17539" lon="5.92369">
        <ele>1691.8000488281</ele>
        <time>2013-09-08T08:55:54.000Z</time>
      </trkpt>
      <trkpt lat="45.17542" lon="5.92353">
        <ele>1691.4000244141</ele>
        <time>2013-09-08T08:55:58.000Z</time>
      </trkpt>
      <trkpt lat="45.17537" lon="5.92335">
        <ele>1694.5999755859</ele>
        <time>2013-09-08T08:56:03.000Z</time>
      </trkpt>
      <trkpt lat="45.17527" lon="5.92322">
        <ele>1700.8000488281</ele>
        <time>2013-09-08T08:56:07.000Z</time>
      </trkpt>
      <trkpt lat="45.17517" lon="5.92306">
        <ele>1707.5999755859</ele>
        <time>2013-09-08T08:56:11.000Z</time>
      </trkpt>
      <trkpt lat="45.17522" lon="5.92287">
        <ele>1708</ele>
        <time>2013-09-08T08:56:16.000Z</time>
      </trkpt>
      <trkpt lat="45.17524" lon="5.92284">
        <ele>1707.5999755859</ele>
        <time>2013-09-08T08:56:17.000Z</time>
      </trkpt>
      <trkpt lat="45.17531" lon="5.9227">
        <ele>1705.8000488281</ele>
        <time>2013-09-08T08:56:23.000Z</time>
      </trkpt>
      <trkpt lat="45.17533" lon="5.92261">
        <ele>1705.5999755859</ele>
        <time>2013-09-08T08:56:27.000Z</time>
      </trkpt>
      <trkpt lat="45.17535" lon="5.92255">
        <ele>1705.5999755859</ele>
        <time>2013-09-08T08:56:29.000Z</time>
      </trkpt>
      <trkpt lat="45.17537" lon="5.92246">
        <ele>1706.5999755859</ele>
        <time>2013-09-08T08:56:32.000Z</time>
      </trkpt>
      <trkpt lat="45.17542" lon="5.92232">
        <ele>1707</ele>
        <time>2013-09-08T08:56:37.000Z</time>
      </trkpt>
      <trkpt lat="45.17546" lon="5.92219">
        <ele>1708.4000244141</ele>
        <time>2013-09-08T08:56:41.000Z</time>
      </trkpt>
      <trkpt lat="45.17552" lon="5.9221">
        <ele>1707.1999511719</ele>
        <time>2013-09-08T08:56:45.000Z</time>
      </trkpt>
      <trkpt lat="45.17564" lon="5.92195">
        <ele>1704</ele>
        <time>2013-09-08T08:56:51.000Z</time>
      </trkpt>
      <trkpt lat="45.1757" lon="5.9218">
        <ele>1703.8000488281</ele>
        <time>2013-09-08T08:56:55.000Z</time>
      </trkpt>
      <trkpt lat="45.17574" lon="5.9217">
        <ele>1703.5999755859</ele>
        <time>2013-09-08T08:56:58.000Z</time>
      </trkpt>
      <trkpt lat="45.17583" lon="5.92153">
        <ele>1702.5999755859</ele>
        <time>2013-09-08T08:57:04.000Z</time>
      </trkpt>
      <trkpt lat="45.17599" lon="5.92142">
        <ele>1696.8000488281</ele>
        <time>2013-09-08T08:57:09.000Z</time>
      </trkpt>
      <trkpt lat="45.17608" lon="5.92128">
        <ele>1696</ele>
        <time>2013-09-08T08:57:13.000Z</time>
      </trkpt>
      <trkpt lat="45.17609" lon="5.92119">
        <ele>1697.5999755859</ele>
        <time>2013-09-08T08:57:15.000Z</time>
      </trkpt>
      <trkpt lat="45.17617" lon="5.92102">
        <ele>1698.5999755859</ele>
        <time>2013-09-08T08:57:21.000Z</time>
      </trkpt>
      <trkpt lat="45.17625" lon="5.92088">
        <ele>1698</ele>
        <time>2013-09-08T08:57:25.000Z</time>
      </trkpt>
      <trkpt lat="45.17643" lon="5.92078">
        <ele>1689.8000488281</ele>
        <time>2013-09-08T08:57:31.000Z</time>
      </trkpt>
      <trkpt lat="45.17658" lon="5.92067">
        <ele>1683.4000244141</ele>
        <time>2013-09-08T08:57:36.000Z</time>
      </trkpt>
      <trkpt lat="45.17667" lon="5.92051">
        <ele>1682.4000244141</ele>
        <time>2013-09-08T08:57:40.000Z</time>
      </trkpt>
      <trkpt lat="45.1767" lon="5.92027">
        <ele>1686.4000244141</ele>
        <time>2013-09-08T08:57:45.000Z</time>
      </trkpt>
      <trkpt lat="45.17675" lon="5.92012">
        <ele>1687.5999755859</ele>
        <time>2013-09-08T08:57:49.000Z</time>
      </trkpt>
      <trkpt lat="45.17684" lon="5.91995">
        <ele>1684.4000244141</ele>
        <time>2013-09-08T08:57:54.000Z</time>
      </trkpt>
      <trkpt lat="45.17699" lon="5.91985">
        <ele>1675.5999755859</ele>
        <time>2013-09-08T08:57:58.000Z</time>
      </trkpt>
      <trkpt lat="45.17706" lon="5.91976">
        <ele>1671.4000244141</ele>
        <time>2013-09-08T08:58:01.000Z</time>
      </trkpt>
      <trkpt lat="45.1771" lon="5.91958">
        <ele>1669</ele>
        <time>2013-09-08T08:58:06.000Z</time>
      </trkpt>
      <trkpt lat="45.17711" lon="5.9194">
        <ele>1668.1999511719</ele>
        <time>2013-09-08T08:58:10.000Z</time>
      </trkpt>
      <trkpt lat="45.17712" lon="5.91922">
        <ele>1667.8000488281</ele>
        <time>2013-09-08T08:58:14.000Z</time>
      </trkpt>
      <trkpt lat="45.17716" lon="5.91909">
        <ele>1665</ele>
        <time>2013-09-08T08:58:20.000Z</time>
      </trkpt>
      <trkpt lat="45.17718" lon="5.91907">
        <ele>1664</ele>
        <time>2013-09-08T08:58:21.000Z</time>
      </trkpt>
      <trkpt lat="45.1772" lon="5.91905">
        <ele>1663</ele>
        <time>2013-09-08T08:58:23.000Z</time>
      </trkpt>
      <trkpt lat="45.17723" lon="5.919">
        <ele>1661.1999511719</ele>
        <time>2013-09-08T08:58:26.000Z</time>
      </trkpt>
      <trkpt lat="45.17729" lon="5.91892">
        <ele>1658.4000244141</ele>
        <time>2013-09-08T08:58:30.000Z</time>
      </trkpt>
      <trkpt lat="45.1773" lon="5.91878">
        <ele>1655.5999755859</ele>
        <time>2013-09-08T08:58:36.000Z</time>
      </trkpt>
      <trkpt lat="45.17724" lon="5.91873">
        <ele>1656.1999511719</ele>
        <time>2013-09-08T08:58:38.000Z</time>
      </trkpt>
      <trkpt lat="45.17716" lon="5.91869">
        <ele>1657.4000244141</ele>
        <time>2013-09-08T08:58:41.000Z</time>
      </trkpt>
      <trkpt lat="45.1772" lon="5.91861">
        <ele>1655</ele>
        <time>2013-09-08T08:58:46.000Z</time>
      </trkpt>
      <trkpt lat="45.17743" lon="5.91852">
        <ele>1649.5999755859</ele>
        <time>2013-09-08T08:58:52.000Z</time>
      </trkpt>
      <trkpt lat="45.17761" lon="5.91849">
        <ele>1643.4000244141</ele>
        <time>2013-09-08T08:58:57.000Z</time>
      </trkpt>
      <trkpt lat="45.17764" lon="5.9185">
        <ele>1642.1999511719</ele>
        <time>2013-09-08T08:58:58.000Z</time>
      </trkpt>
      <trkpt lat="45.17769" lon="5.91847">
        <ele>1639.8000488281</ele>
        <time>2013-09-08T08:59:01.000Z</time>
      </trkpt>
      <trkpt lat="45.17754" lon="5.91838">
        <ele>1645.5999755859</ele>
        <time>2013-09-08T08:59:06.000Z</time>
      </trkpt>
      <trkpt lat="45.1775" lon="5.91836">
        <ele>1647</ele>
        <time>2013-09-08T08:59:08.000Z</time>
      </trkpt>
      <trkpt lat="45.17763" lon="5.9183">
        <ele>1640.8000488281</ele>
        <time>2013-09-08T08:59:14.000Z</time>
      </trkpt>
      <trkpt lat="45.17783" lon="5.91832">
        <ele>1633.4000244141</ele>
        <time>2013-09-08T08:59:20.000Z</time>
      </trkpt>
      <trkpt lat="45.17785" lon="5.91832">
        <ele>1632.8000488281</ele>
        <time>2013-09-08T08:59:21.000Z</time>
      </trkpt>
      <trkpt lat="45.17783" lon="5.91825">
        <ele>1631.5999755859</ele>
        <time>2013-09-08T08:59:26.000Z</time>
      </trkpt>
      <trkpt lat="45.1777" lon="5.91811">
        <ele>1631.5999755859</ele>
        <time>2013-09-08T08:59:31.000Z</time>
      </trkpt>
      <trkpt lat="45.17768" lon="5.91809">
        <ele>1631.5999755859</ele>
        <time>2013-09-08T08:59:32.000Z</time>
      </trkpt>
      <trkpt lat="45.17767" lon="5.91799">
        <ele>1628.4000244141</ele>
        <time>2013-09-08T08:59:38.000Z</time>
      </trkpt>
      <trkpt lat="45.17787" lon="5.91797">
        <ele>1622.1999511719</ele>
        <time>2013-09-08T08:59:44.000Z</time>
      </trkpt>
      <trkpt lat="45.17797" lon="5.91795">
        <ele>1619</ele>
        <time>2013-09-08T08:59:47.000Z</time>
      </trkpt>
      <trkpt lat="45.17808" lon="5.91792">
        <ele>1615.4000244141</ele>
        <time>2013-09-08T08:59:52.000Z</time>
      </trkpt>
      <trkpt lat="45.17801" lon="5.91786">
        <ele>1615.8000488281</ele>
        <time>2013-09-08T08:59:55.000Z</time>
      </trkpt>
      <trkpt lat="45.17798" lon="5.91784">
        <ele>1616.1999511719</ele>
        <time>2013-09-08T08:59:56.000Z</time>
      </trkpt>
      <trkpt lat="45.17791" lon="5.91781">
        <ele>1617</ele>
        <time>2013-09-08T08:59:58.000Z</time>
      </trkpt>
      <trkpt lat="45.17777" lon="5.9177">
        <ele>1616.8000488281</ele>
        <time>2013-09-08T09:00:03.000Z</time>
      </trkpt>
      <trkpt lat="45.17766" lon="5.9176">
        <ele>1615.4000244141</ele>
        <time>2013-09-08T09:00:08.000Z</time>
      </trkpt>
      <trkpt lat="45.17757" lon="5.9175">
        <ele>1613.1999511719</ele>
        <time>2013-09-08T09:00:12.000Z</time>
      </trkpt>
      <trkpt lat="45.17752" lon="5.91748">
        <ele>1612.8000488281</ele>
        <time>2013-09-08T09:00:14.000Z</time>
      </trkpt>
      <trkpt lat="45.17744" lon="5.91742">
        <ele>1610.5999755859</ele>
        <time>2013-09-08T09:00:18.000Z</time>
      </trkpt>
      <trkpt lat="45.17752" lon="5.91733">
        <ele>1606</ele>
        <time>2013-09-08T09:00:22.000Z</time>
      </trkpt>
      <trkpt lat="45.17766" lon="5.91725">
        <ele>1601</ele>
        <time>2013-09-08T09:00:27.000Z</time>
      </trkpt>
      <trkpt lat="45.17769" lon="5.91724">
        <ele>1600.4000244141</ele>
        <time>2013-09-08T09:00:28.000Z</time>
      </trkpt>
      <trkpt lat="45.17782" lon="5.91721">
        <ele>1597.4000244141</ele>
        <time>2013-09-08T09:00:33.000Z</time>
      </trkpt>
      <trkpt lat="45.17794" lon="5.91721">
        <ele>1596.4000244141</ele>
        <time>2013-09-08T09:00:37.000Z</time>
      </trkpt>
      <trkpt lat="45.17812" lon="5.91712">
        <ele>1590.8000488281</ele>
        <time>2013-09-08T09:00:43.000Z</time>
      </trkpt>
      <trkpt lat="45.17822" lon="5.91704">
        <ele>1586.5999755859</ele>
        <time>2013-09-08T09:00:47.000Z</time>
      </trkpt>
      <trkpt lat="45.17832" lon="5.91701">
        <ele>1584.4000244141</ele>
        <time>2013-09-08T09:00:51.000Z</time>
      </trkpt>
      <trkpt lat="45.17843" lon="5.917">
        <ele>1580.8000488281</ele>
        <time>2013-09-08T09:00:55.000Z</time>
      </trkpt>
      <trkpt lat="45.17845" lon="5.91698">
        <ele>1579.5999755859</ele>
        <time>2013-09-08T09:00:58.000Z</time>
      </trkpt>
      <trkpt lat="45.17832" lon="5.91695">
        <ele>1582.1999511719</ele>
        <time>2013-09-08T09:01:02.000Z</time>
      </trkpt>
      <trkpt lat="45.17822" lon="5.91686">
        <ele>1579.4000244141</ele>
        <time>2013-09-08T09:01:06.000Z</time>
      </trkpt>
      <trkpt lat="45.17816" lon="5.91682">
        <ele>1578.4000244141</ele>
        <time>2013-09-08T09:01:08.000Z</time>
      </trkpt>
      <trkpt lat="45.17802" lon="5.91674">
        <ele>1576</ele>
        <time>2013-09-08T09:01:14.000Z</time>
      </trkpt>
      <trkpt lat="45.178" lon="5.91673">
        <ele>1575.5999755859</ele>
        <time>2013-09-08T09:01:15.000Z</time>
      </trkpt>
      <trkpt lat="45.17804" lon="5.91661">
        <ele>1570</ele>
        <time>2013-09-08T09:01:19.000Z</time>
      </trkpt>
      <trkpt lat="45.17807" lon="5.91659">
        <ele>1569.1999511719</ele>
        <time>2013-09-08T09:01:20.000Z</time>
      </trkpt>
      <trkpt lat="45.17826" lon="5.91649">
        <ele>1563.5999755859</ele>
        <time>2013-09-08T09:01:25.000Z</time>
      </trkpt>
      <trkpt lat="45.17843" lon="5.91635">
        <ele>1556.5999755859</ele>
        <time>2013-09-08T09:01:30.000Z</time>
      </trkpt>
      <trkpt lat="45.1786" lon="5.91623">
        <ele>1550.1999511719</ele>
        <time>2013-09-08T09:01:35.000Z</time>
      </trkpt>
      <trkpt lat="45.17875" lon="5.91606">
        <ele>1542.8000488281</ele>
        <time>2013-09-08T09:01:40.000Z</time>
      </trkpt>
      <trkpt lat="45.1789" lon="5.91605">
        <ele>1541.8000488281</ele>
        <time>2013-09-08T09:01:45.000Z</time>
      </trkpt>
      <trkpt lat="45.17904" lon="5.91601">
        <ele>1540</ele>
        <time>2013-09-08T09:01:49.000Z</time>
      </trkpt>
      <trkpt lat="45.17918" lon="5.916">
        <ele>1538.8000488281</ele>
        <time>2013-09-08T09:01:53.000Z</time>
      </trkpt>
      <trkpt lat="45.17939" lon="5.91595">
        <ele>1533.1999511719</ele>
        <time>2013-09-08T09:01:58.000Z</time>
      </trkpt>
      <trkpt lat="45.17959" lon="5.91592">
        <ele>1529</ele>
        <time>2013-09-08T09:02:03.000Z</time>
      </trkpt>
      <trkpt lat="45.17962" lon="5.91592">
        <ele>1528.1999511719</ele>
        <time>2013-09-08T09:02:04.000Z</time>
      </trkpt>
      <trkpt lat="45.17984" lon="5.91589">
        <ele>1523.8000488281</ele>
        <time>2013-09-08T09:02:09.000Z</time>
      </trkpt>
      <trkpt lat="45.17991" lon="5.91587">
        <ele>1522.4000244141</ele>
        <time>2013-09-08T09:02:11.000Z</time>
      </trkpt>
      <trkpt lat="45.18009" lon="5.91587">
        <ele>1519.5999755859</ele>
        <time>2013-09-08T09:02:15.000Z</time>
      </trkpt>
      <trkpt lat="45.18026" lon="5.91586">
        <ele>1517.4000244141</ele>
        <time>2013-09-08T09:02:19.000Z</time>
      </trkpt>
      <trkpt lat="45.18044" lon="5.91589">
        <ele>1514.8000488281</ele>
        <time>2013-09-08T09:02:23.000Z</time>
      </trkpt>
      <trkpt lat="45.18054" lon="5.91588">
        <ele>1513.5999755859</ele>
        <time>2013-09-08T09:02:26.000Z</time>
      </trkpt>
      <trkpt lat="45.18076" lon="5.91579">
        <ele>1511.4000244141</ele>
        <time>2013-09-08T09:02:32.000Z</time>
      </trkpt>
      <trkpt lat="45.18092" lon="5.91574">
        <ele>1509.4000244141</ele>
        <time>2013-09-08T09:02:36.000Z</time>
      </trkpt>
      <trkpt lat="45.18106" lon="5.91568">
        <ele>1508</ele>
        <time>2013-09-08T09:02:40.000Z</time>
      </trkpt>
      <trkpt lat="45.1812" lon="5.91557">
        <ele>1506.5999755859</ele>
        <time>2013-09-08T09:02:44.000Z</time>
      </trkpt>
      <trkpt lat="45.18128" lon="5.91533">
        <ele>1505.5999755859</ele>
        <time>2013-09-08T09:02:49.000Z</time>
      </trkpt>
      <trkpt lat="45.18122" lon="5.91515">
        <ele>1505.4000244141</ele>
        <time>2013-09-08T09:02:53.000Z</time>
      </trkpt>
      <trkpt lat="45.18114" lon="5.91498">
        <ele>1504.4000244141</ele>
        <time>2013-09-08T09:02:57.000Z</time>
      </trkpt>
      <trkpt lat="45.18126" lon="5.91477">
        <ele>1500</ele>
        <time>2013-09-08T09:03:02.000Z</time>
      </trkpt>
      <trkpt lat="45.1814" lon="5.91465">
        <ele>1498.1999511719</ele>
        <time>2013-09-08T09:03:06.000Z</time>
      </trkpt>
      <trkpt lat="45.18155" lon="5.91456">
        <ele>1497</ele>
        <time>2013-09-08T09:03:10.000Z</time>
      </trkpt>
      <trkpt lat="45.18176" lon="5.91455">
        <ele>1496</ele>
        <time>2013-09-08T09:03:16.000Z</time>
      </trkpt>
      <trkpt lat="45.18197" lon="5.91442">
        <ele>1491.4000244141</ele>
        <time>2013-09-08T09:03:22.000Z</time>
      </trkpt>
      <trkpt lat="45.18219" lon="5.91428">
        <ele>1486</ele>
        <time>2013-09-08T09:03:28.000Z</time>
      </trkpt>
      <trkpt lat="45.18238" lon="5.91421">
        <ele>1482.4000244141</ele>
        <time>2013-09-08T09:03:33.000Z</time>
      </trkpt>
      <trkpt lat="45.18253" lon="5.91417">
        <ele>1479.4000244141</ele>
        <time>2013-09-08T09:03:37.000Z</time>
      </trkpt>
      <trkpt lat="45.1827" lon="5.91411">
        <ele>1474.5999755859</ele>
        <time>2013-09-08T09:03:41.000Z</time>
      </trkpt>
      <trkpt lat="45.18287" lon="5.9141">
        <ele>1471.1999511719</ele>
        <time>2013-09-08T09:03:46.000Z</time>
      </trkpt>
      <trkpt lat="45.18305" lon="5.91407">
        <ele>1467</ele>
        <time>2013-09-08T09:03:51.000Z</time>
      </trkpt>
      <trkpt lat="45.18323" lon="5.91402">
        <ele>1462</ele>
        <time>2013-09-08T09:03:56.000Z</time>
      </trkpt>
      <trkpt lat="45.18337" lon="5.91394">
        <ele>1457.1999511719</ele>
        <time>2013-09-08T09:04:00.000Z</time>
      </trkpt>
      <trkpt lat="45.18359" lon="5.91385">
        <ele>1450</ele>
        <time>2013-09-08T09:04:06.000Z</time>
      </trkpt>
      <trkpt lat="45.18377" lon="5.9138">
        <ele>1444.8000488281</ele>
        <time>2013-09-08T09:04:11.000Z</time>
      </trkpt>
      <trkpt lat="45.18393" lon="5.91376">
        <ele>1440.1999511719</ele>
        <time>2013-09-08T09:04:15.000Z</time>
      </trkpt>
      <trkpt lat="45.18408" lon="5.91373">
        <ele>1436.5999755859</ele>
        <time>2013-09-08T09:04:19.000Z</time>
      </trkpt>
      <trkpt lat="45.18422" lon="5.91373">
        <ele>1433.4000244141</ele>
        <time>2013-09-08T09:04:23.000Z</time>
      </trkpt>
      <trkpt lat="45.18436" lon="5.9137">
        <ele>1428.8000488281</ele>
        <time>2013-09-08T09:04:27.000Z</time>
      </trkpt>
      <trkpt lat="45.18451" lon="5.91367">
        <ele>1424</ele>
        <time>2013-09-08T09:04:31.000Z</time>
      </trkpt>
      <trkpt lat="45.18474" lon="5.91365">
        <ele>1418</ele>
        <time>2013-09-08T09:04:36.000Z</time>
      </trkpt>
      <trkpt lat="45.18486" lon="5.91375">
        <ele>1415.8000488281</ele>
        <time>2013-09-08T09:04:40.000Z</time>
      </trkpt>
      <trkpt lat="45.18505" lon="5.91378">
        <ele>1410.5999755859</ele>
        <time>2013-09-08T09:04:46.000Z</time>
      </trkpt>
      <trkpt lat="45.18517" lon="5.91372">
        <ele>1406.5999755859</ele>
        <time>2013-09-08T09:04:51.000Z</time>
      </trkpt>
      <trkpt lat="45.18537" lon="5.91356">
        <ele>1402.1999511719</ele>
        <time>2013-09-08T09:04:57.000Z</time>
      </trkpt>
      <trkpt lat="45.18549" lon="5.91348">
        <ele>1400.1999511719</ele>
        <time>2013-09-08T09:05:01.000Z</time>
      </trkpt>
      <trkpt lat="45.18562" lon="5.91334">
        <ele>1399.4000244141</ele>
        <time>2013-09-08T09:05:06.000Z</time>
      </trkpt>
      <trkpt lat="45.18573" lon="5.9132">
        <ele>1396.4000244141</ele>
        <time>2013-09-08T09:05:10.000Z</time>
      </trkpt>
      <trkpt lat="45.1859" lon="5.91306">
        <ele>1392.4000244141</ele>
        <time>2013-09-08T09:05:15.000Z</time>
      </trkpt>
      <trkpt lat="45.18608" lon="5.91299">
        <ele>1388.5999755859</ele>
        <time>2013-09-08T09:05:20.000Z</time>
      </trkpt>
      <trkpt lat="45.18621" lon="5.91301">
        <ele>1386.1999511719</ele>
        <time>2013-09-08T09:05:25.000Z</time>
      </trkpt>
      <trkpt lat="45.18636" lon="5.91301">
        <ele>1383.5999755859</ele>
        <time>2013-09-08T09:05:30.000Z</time>
      </trkpt>
      <trkpt lat="45.18652" lon="5.91301">
        <ele>1380.5999755859</ele>
        <time>2013-09-08T09:05:36.000Z</time>
      </trkpt>
      <trkpt lat="45.18669" lon="5.91294">
        <ele>1377.5999755859</ele>
        <time>2013-09-08T09:05:40.000Z</time>
      </trkpt>
      <trkpt lat="45.18672" lon="5.91292">
        <ele>1377</ele>
        <time>2013-09-08T09:05:41.000Z</time>
      </trkpt>
      <trkpt lat="45.18688" lon="5.91291">
        <ele>1374.4000244141</ele>
        <time>2013-09-08T09:05:46.000Z</time>
      </trkpt>
      <trkpt lat="45.18691" lon="5.91287">
        <ele>1374.1999511719</ele>
        <time>2013-09-08T09:05:47.000Z</time>
      </trkpt>
      <trkpt lat="45.1871" lon="5.91255">
        <ele>1374.8000488281</ele>
        <time>2013-09-08T09:05:55.000Z</time>
      </trkpt>
      <trkpt lat="45.18721" lon="5.91242">
        <ele>1373.5999755859</ele>
        <time>2013-09-08T09:06:00.000Z</time>
      </trkpt>
      <trkpt lat="45.18732" lon="5.91229">
        <ele>1371.5999755859</ele>
        <time>2013-09-08T09:06:05.000Z</time>
      </trkpt>
      <trkpt lat="45.18736" lon="5.91224">
        <ele>1371</ele>
        <time>2013-09-08T09:06:07.000Z</time>
      </trkpt>
      <trkpt lat="45.18746" lon="5.91201">
        <ele>1368.8000488281</ele>
        <time>2013-09-08T09:06:12.000Z</time>
      </trkpt>
      <trkpt lat="45.1875" lon="5.91198">
        <ele>1368.5999755859</ele>
        <time>2013-09-08T09:06:13.000Z</time>
      </trkpt>
      <trkpt lat="45.18761" lon="5.91185">
        <ele>1366</ele>
        <time>2013-09-08T09:06:17.000Z</time>
      </trkpt>
      <trkpt lat="45.18779" lon="5.91169">
        <ele>1363.1999511719</ele>
        <time>2013-09-08T09:06:23.000Z</time>
      </trkpt>
      <trkpt lat="45.18788" lon="5.91156">
        <ele>1359.5999755859</ele>
        <time>2013-09-08T09:06:27.000Z</time>
      </trkpt>
      <trkpt lat="45.18787" lon="5.91139">
        <ele>1355.1999511719</ele>
        <time>2013-09-08T09:06:31.000Z</time>
      </trkpt>
      <trkpt lat="45.18773" lon="5.91122">
        <ele>1351.4000244141</ele>
        <time>2013-09-08T09:06:37.000Z</time>
      </trkpt>
      <trkpt lat="45.18766" lon="5.91116">
        <ele>1350.1999511719</ele>
        <time>2013-09-08T09:06:40.000Z</time>
      </trkpt>
      <trkpt lat="45.18745" lon="5.91115">
        <ele>1350.1999511719</ele>
        <time>2013-09-08T09:06:46.000Z</time>
      </trkpt>
      <trkpt lat="45.18726" lon="5.91112">
        <ele>1348.5999755859</ele>
        <time>2013-09-08T09:06:52.000Z</time>
      </trkpt>
      <trkpt lat="45.18704" lon="5.91111">
        <ele>1347.4000244141</ele>
        <time>2013-09-08T09:06:56.000Z</time>
      </trkpt>
      <trkpt lat="45.18697" lon="5.91107">
        <ele>1346</ele>
        <time>2013-09-08T09:06:58.000Z</time>
      </trkpt>
      <trkpt lat="45.18692" lon="5.91101">
        <ele>1343.8000488281</ele>
        <time>2013-09-08T09:07:00.000Z</time>
      </trkpt>
      <trkpt lat="45.18685" lon="5.9109">
        <ele>1340.5999755859</ele>
        <time>2013-09-08T09:07:03.000Z</time>
      </trkpt>
      <trkpt lat="45.18673" lon="5.91068">
        <ele>1335</ele>
        <time>2013-09-08T09:07:09.000Z</time>
      </trkpt>
      <trkpt lat="45.18657" lon="5.91037">
        <ele>1329.4000244141</ele>
        <time>2013-09-08T09:07:17.000Z</time>
      </trkpt>
      <trkpt lat="45.18647" lon="5.91016">
        <ele>1325.8000488281</ele>
        <time>2013-09-08T09:07:22.000Z</time>
      </trkpt>
      <trkpt lat="45.18641" lon="5.91003">
        <ele>1323</ele>
        <time>2013-09-08T09:07:25.000Z</time>
      </trkpt>
      <trkpt lat="45.18627" lon="5.90987">
        <ele>1320.5999755859</ele>
        <time>2013-09-08T09:07:30.000Z</time>
      </trkpt>
      <trkpt lat="45.18616" lon="5.90968">
        <ele>1317</ele>
        <time>2013-09-08T09:07:35.000Z</time>
      </trkpt>
      <trkpt lat="45.18606" lon="5.9095">
        <ele>1313.4000244141</ele>
        <time>2013-09-08T09:07:40.000Z</time>
      </trkpt>
      <trkpt lat="45.18592" lon="5.90929">
        <ele>1308.8000488281</ele>
        <time>2013-09-08T09:07:45.000Z</time>
      </trkpt>
      <trkpt lat="45.18581" lon="5.90908">
        <ele>1303.8000488281</ele>
        <time>2013-09-08T09:07:50.000Z</time>
      </trkpt>
      <trkpt lat="45.18566" lon="5.90893">
        <ele>1300</ele>
        <time>2013-09-08T09:07:55.000Z</time>
      </trkpt>
      <trkpt lat="45.18559" lon="5.90882">
        <ele>1297.4000244141</ele>
        <time>2013-09-08T09:07:58.000Z</time>
      </trkpt>
      <trkpt lat="45.18539" lon="5.90866">
        <ele>1294</ele>
        <time>2013-09-08T09:08:04.000Z</time>
      </trkpt>
      <trkpt lat="45.18532" lon="5.90861">
        <ele>1293</ele>
        <time>2013-09-08T09:08:06.000Z</time>
      </trkpt>
      <trkpt lat="45.18519" lon="5.9084">
        <ele>1288</ele>
        <time>2013-09-08T09:08:12.000Z</time>
      </trkpt>
      <trkpt lat="45.18508" lon="5.90827">
        <ele>1285</ele>
        <time>2013-09-08T09:08:16.000Z</time>
      </trkpt>
      <trkpt lat="45.18495" lon="5.90817">
        <ele>1282</ele>
        <time>2013-09-08T09:08:20.000Z</time>
      </trkpt>
      <trkpt lat="45.18484" lon="5.90806">
        <ele>1278.1999511719</ele>
        <time>2013-09-08T09:08:24.000Z</time>
      </trkpt>
      <trkpt lat="45.18474" lon="5.90795">
        <ele>1275</ele>
        <time>2013-09-08T09:08:28.000Z</time>
      </trkpt>
      <trkpt lat="45.18462" lon="5.90782">
        <ele>1271.4000244141</ele>
        <time>2013-09-08T09:08:33.000Z</time>
      </trkpt>
      <trkpt lat="45.18452" lon="5.90769">
        <ele>1268</ele>
        <time>2013-09-08T09:08:37.000Z</time>
      </trkpt>
      <trkpt lat="45.18441" lon="5.90755">
        <ele>1264.8000488281</ele>
        <time>2013-09-08T09:08:41.000Z</time>
      </trkpt>
      <trkpt lat="45.18424" lon="5.90736">
        <ele>1261.4000244141</ele>
        <time>2013-09-08T09:08:47.000Z</time>
      </trkpt>
      <trkpt lat="45.18419" lon="5.90717">
        <ele>1258</ele>
        <time>2013-09-08T09:08:51.000Z</time>
      </trkpt>
      <trkpt lat="45.18424" lon="5.90695">
        <ele>1254</ele>
        <time>2013-09-08T09:08:55.000Z</time>
      </trkpt>
      <trkpt lat="45.18435" lon="5.90679">
        <ele>1251.1999511719</ele>
        <time>2013-09-08T09:08:59.000Z</time>
      </trkpt>
      <trkpt lat="45.18443" lon="5.9066">
        <ele>1247.5999755859</ele>
        <time>2013-09-08T09:09:03.000Z</time>
      </trkpt>
      <trkpt lat="45.1845" lon="5.9064">
        <ele>1243.5999755859</ele>
        <time>2013-09-08T09:09:08.000Z</time>
      </trkpt>
      <trkpt lat="45.18465" lon="5.90626">
        <ele>1240.8000488281</ele>
        <time>2013-09-08T09:09:13.000Z</time>
      </trkpt>
      <trkpt lat="45.1848" lon="5.90616">
        <ele>1239</ele>
        <time>2013-09-08T09:09:18.000Z</time>
      </trkpt>
      <trkpt lat="45.18493" lon="5.90606">
        <ele>1237.1999511719</ele>
        <time>2013-09-08T09:09:23.000Z</time>
      </trkpt>
      <trkpt lat="45.185" lon="5.90597">
        <ele>1235.5999755859</ele>
        <time>2013-09-08T09:09:26.000Z</time>
      </trkpt>
      <trkpt lat="45.18526" lon="5.90582">
        <ele>1232.4000244141</ele>
        <time>2013-09-08T09:09:34.000Z</time>
      </trkpt>
      <trkpt lat="45.18544" lon="5.90569">
        <ele>1228.4000244141</ele>
        <time>2013-09-08T09:09:39.000Z</time>
      </trkpt>
      <trkpt lat="45.18558" lon="5.90551">
        <ele>1224</ele>
        <time>2013-09-08T09:09:44.000Z</time>
      </trkpt>
      <trkpt lat="45.18569" lon="5.90539">
        <ele>1221</ele>
        <time>2013-09-08T09:09:47.000Z</time>
      </trkpt>
      <trkpt lat="45.1858" lon="5.90528">
        <ele>1218.4000244141</ele>
        <time>2013-09-08T09:09:50.000Z</time>
      </trkpt>
      <trkpt lat="45.18592" lon="5.90511">
        <ele>1215</ele>
        <time>2013-09-08T09:09:55.000Z</time>
      </trkpt>
      <trkpt lat="45.18598" lon="5.90489">
        <ele>1210.4000244141</ele>
        <time>2013-09-08T09:10:00.000Z</time>
      </trkpt>
      <trkpt lat="45.18598" lon="5.90468">
        <ele>1205.1999511719</ele>
        <time>2013-09-08T09:10:05.000Z</time>
      </trkpt>
      <trkpt lat="45.18606" lon="5.9045">
        <ele>1201.4000244141</ele>
        <time>2013-09-08T09:10:09.000Z</time>
      </trkpt>
      <trkpt lat="45.18618" lon="5.90439">
        <ele>1200</ele>
        <time>2013-09-08T09:10:14.000Z</time>
      </trkpt>
      <trkpt lat="45.18621" lon="5.90438">
        <ele>1199.8000488281</ele>
        <time>2013-09-08T09:10:16.000Z</time>
      </trkpt>
      <trkpt lat="45.18628" lon="5.90427">
        <ele>1198</ele>
        <time>2013-09-08T09:10:21.000Z</time>
      </trkpt>
      <trkpt lat="45.18629" lon="5.9042">
        <ele>1196.5999755859</ele>
        <time>2013-09-08T09:10:23.000Z</time>
      </trkpt>
      <trkpt lat="45.18635" lon="5.90393">
        <ele>1192</ele>
        <time>2013-09-08T09:10:29.000Z</time>
      </trkpt>
      <trkpt lat="45.18639" lon="5.90377">
        <ele>1189.1999511719</ele>
        <time>2013-09-08T09:10:33.000Z</time>
      </trkpt>
      <trkpt lat="45.18647" lon="5.90355">
        <ele>1186</ele>
        <time>2013-09-08T09:10:39.000Z</time>
      </trkpt>
      <trkpt lat="45.18651" lon="5.90337">
        <ele>1183</ele>
        <time>2013-09-08T09:10:44.000Z</time>
      </trkpt>
      <trkpt lat="45.18656" lon="5.9031">
        <ele>1179.5999755859</ele>
        <time>2013-09-08T09:10:50.000Z</time>
      </trkpt>
      <trkpt lat="45.18661" lon="5.90283">
        <ele>1176.4000244141</ele>
        <time>2013-09-08T09:10:54.000Z</time>
      </trkpt>
      <trkpt lat="45.18664" lon="5.90273">
        <ele>1175.1999511719</ele>
        <time>2013-09-08T09:10:57.000Z</time>
      </trkpt>
      <trkpt lat="45.18656" lon="5.90257">
        <ele>1172.5999755859</ele>
        <time>2013-09-08T09:11:01.000Z</time>
      </trkpt>
      <trkpt lat="45.1865" lon="5.90235">
        <ele>1170.1999511719</ele>
        <time>2013-09-08T09:11:05.000Z</time>
      </trkpt>
      <trkpt lat="45.18644" lon="5.90206">
        <ele>1167.1999511719</ele>
        <time>2013-09-08T09:11:10.000Z</time>
      </trkpt>
      <trkpt lat="45.18639" lon="5.90191">
        <ele>1166.1999511719</ele>
        <time>2013-09-08T09:11:13.000Z</time>
      </trkpt>
      <trkpt lat="45.18633" lon="5.9017">
        <ele>1164.8000488281</ele>
        <time>2013-09-08T09:11:17.000Z</time>
      </trkpt>
      <trkpt lat="45.18629" lon="5.90154">
        <ele>1164.1999511719</ele>
        <time>2013-09-08T09:11:20.000Z</time>
      </trkpt>
      <trkpt lat="45.18631" lon="5.90124">
        <ele>1162.4000244141</ele>
        <time>2013-09-08T09:11:25.000Z</time>
      </trkpt>
      <trkpt lat="45.18636" lon="5.90106">
        <ele>1160.5999755859</ele>
        <time>2013-09-08T09:11:28.000Z</time>
      </trkpt>
      <trkpt lat="45.18644" lon="5.90089">
        <ele>1158.5999755859</ele>
        <time>2013-09-08T09:11:31.000Z</time>
      </trkpt>
      <trkpt lat="45.18659" lon="5.90074">
        <ele>1155.5999755859</ele>
        <time>2013-09-08T09:11:36.000Z</time>
      </trkpt>
      <trkpt lat="45.18663" lon="5.90071">
        <ele>1155</ele>
        <time>2013-09-08T09:11:37.000Z</time>
      </trkpt>
      <trkpt lat="45.18681" lon="5.90054">
        <ele>1152</ele>
        <time>2013-09-08T09:11:43.000Z</time>
      </trkpt>
      <trkpt lat="45.18682" lon="5.90049">
        <ele>1151.8000488281</ele>
        <time>2013-09-08T09:11:44.000Z</time>
      </trkpt>
      <trkpt lat="45.18685" lon="5.90023">
        <ele>1150.8000488281</ele>
        <time>2013-09-08T09:11:49.000Z</time>
      </trkpt>
      <trkpt lat="45.18691" lon="5.89992">
        <ele>1149.5999755859</ele>
        <time>2013-09-08T09:11:55.000Z</time>
      </trkpt>
      <trkpt lat="45.1869" lon="5.89963">
        <ele>1148.8000488281</ele>
        <time>2013-09-08T09:12:00.000Z</time>
      </trkpt>
      <trkpt lat="45.18689" lon="5.89945">
        <ele>1148.4000244141</ele>
        <time>2013-09-08T09:12:03.000Z</time>
      </trkpt>
      <trkpt lat="45.18691" lon="5.89927">
        <ele>1148</ele>
        <time>2013-09-08T09:12:06.000Z</time>
      </trkpt>
    </trkseg>
  </trk>
</gpx>